<?xml version="1.0" encoding="UTF-8" standalone="no" ?>
<gpx xmlns="http://www.topografix.com/GPX/1/1" xmlns:xsi="http://www.w3.org/2001/XMLSchema-instance" xsi:schemaLocation="http://www.topografix.com/GPX/1/1 http://www.topografix.com/GPX/1/1/gpx.xsd" version="1.1" creator="VisuGPX - https://www.visugpx.com">
  <metadata>
    <name>Cime de Caron (3195m)</name>
    <desc><![CDATA[Enregistrement de la montée uniquement. Descente vers Val Thorens en contournant vers l'est, vers le plateau, puis les 2 lacs.
Montée à travers champs, traversée de travaux (la cime était en fait interdite d'accès à cette période...)]]></desc>
  </metadata>
  <trk>
    <name><![CDATA[5 août 2019 07:09:07]]></name>
    <trkseg>
      <trkpt lat="45.30645" lon="6.54464">
        <ele>1817.6</ele>
        <time>2019-08-05T05:09:09.000Z</time>
      </trkpt>
      <trkpt lat="45.30636" lon="6.5447">
        <ele>1818.6</ele>
        <time>2019-08-05T05:09:21.000Z</time>
      </trkpt>
      <trkpt lat="45.30628" lon="6.54479">
        <ele>1819.1</ele>
        <time>2019-08-05T05:09:30.000Z</time>
      </trkpt>
      <trkpt lat="45.30619" lon="6.54485">
        <ele>1821</ele>
        <time>2019-08-05T05:09:37.000Z</time>
      </trkpt>
      <trkpt lat="45.30611" lon="6.5449">
        <ele>1823.4</ele>
        <time>2019-08-05T05:09:45.000Z</time>
      </trkpt>
      <trkpt lat="45.30601" lon="6.54495">
        <ele>1827.8</ele>
        <time>2019-08-05T05:09:53.000Z</time>
      </trkpt>
      <trkpt lat="45.30593" lon="6.54502">
        <ele>1827.5</ele>
        <time>2019-08-05T05:10:20.000Z</time>
      </trkpt>
      <trkpt lat="45.30584" lon="6.54504">
        <ele>1827.8</ele>
        <time>2019-08-05T05:10:29.000Z</time>
      </trkpt>
      <trkpt lat="45.30575" lon="6.5451">
        <ele>1828.9</ele>
        <time>2019-08-05T05:10:39.000Z</time>
      </trkpt>
      <trkpt lat="45.30566" lon="6.54516">
        <ele>1829.8</ele>
        <time>2019-08-05T05:10:48.000Z</time>
      </trkpt>
      <trkpt lat="45.30557" lon="6.5452">
        <ele>1832.1</ele>
        <time>2019-08-05T05:10:57.000Z</time>
      </trkpt>
      <trkpt lat="45.30549" lon="6.54527">
        <ele>1836.9</ele>
        <time>2019-08-05T05:11:08.000Z</time>
      </trkpt>
      <trkpt lat="45.30543" lon="6.54537">
        <ele>1842.3</ele>
        <time>2019-08-05T05:11:25.000Z</time>
      </trkpt>
      <trkpt lat="45.30534" lon="6.54542">
        <ele>1844.6</ele>
        <time>2019-08-05T05:11:35.000Z</time>
      </trkpt>
      <trkpt lat="45.30529" lon="6.54552">
        <ele>1846.5</ele>
        <time>2019-08-05T05:11:44.000Z</time>
      </trkpt>
      <trkpt lat="45.3052" lon="6.54559">
        <ele>1848.7</ele>
        <time>2019-08-05T05:11:54.000Z</time>
      </trkpt>
      <trkpt lat="45.30512" lon="6.54565">
        <ele>1850.5</ele>
        <time>2019-08-05T05:12:02.000Z</time>
      </trkpt>
      <trkpt lat="45.30504" lon="6.54569">
        <ele>1853.6</ele>
        <time>2019-08-05T05:12:10.000Z</time>
      </trkpt>
      <trkpt lat="45.30495" lon="6.54572">
        <ele>1855.2</ele>
        <time>2019-08-05T05:12:18.000Z</time>
      </trkpt>
      <trkpt lat="45.30486" lon="6.54575">
        <ele>1857.1</ele>
        <time>2019-08-05T05:12:26.000Z</time>
      </trkpt>
      <trkpt lat="45.30477" lon="6.5458">
        <ele>1859.7</ele>
        <time>2019-08-05T05:12:36.000Z</time>
      </trkpt>
      <trkpt lat="45.30468" lon="6.54585">
        <ele>1862.8</ele>
        <time>2019-08-05T05:12:45.000Z</time>
      </trkpt>
      <trkpt lat="45.30459" lon="6.54591">
        <ele>1863.7</ele>
        <time>2019-08-05T05:12:53.000Z</time>
      </trkpt>
      <trkpt lat="45.30452" lon="6.54602">
        <ele>1864.6</ele>
        <time>2019-08-05T05:13:01.000Z</time>
      </trkpt>
      <trkpt lat="45.30445" lon="6.5461">
        <ele>1866.3</ele>
        <time>2019-08-05T05:13:09.000Z</time>
      </trkpt>
      <trkpt lat="45.30438" lon="6.54619">
        <ele>1868</ele>
        <time>2019-08-05T05:13:17.000Z</time>
      </trkpt>
      <trkpt lat="45.3043" lon="6.54629">
        <ele>1868.5</ele>
        <time>2019-08-05T05:13:25.000Z</time>
      </trkpt>
      <trkpt lat="45.30423" lon="6.54639">
        <ele>1868.2</ele>
        <time>2019-08-05T05:13:43.000Z</time>
      </trkpt>
      <trkpt lat="45.30419" lon="6.5465">
        <ele>1867.7</ele>
        <time>2019-08-05T05:13:50.000Z</time>
      </trkpt>
      <trkpt lat="45.30411" lon="6.54659">
        <ele>1867.8</ele>
        <time>2019-08-05T05:13:58.000Z</time>
      </trkpt>
      <trkpt lat="45.30403" lon="6.54667">
        <ele>1867</ele>
        <time>2019-08-05T05:14:05.000Z</time>
      </trkpt>
      <trkpt lat="45.30395" lon="6.54674">
        <ele>1867.2</ele>
        <time>2019-08-05T05:14:11.000Z</time>
      </trkpt>
      <trkpt lat="45.30386" lon="6.54681">
        <ele>1867.8</ele>
        <time>2019-08-05T05:14:18.000Z</time>
      </trkpt>
      <trkpt lat="45.30377" lon="6.54685">
        <ele>1867.5</ele>
        <time>2019-08-05T05:14:25.000Z</time>
      </trkpt>
      <trkpt lat="45.30366" lon="6.54688">
        <ele>1867.6</ele>
        <time>2019-08-05T05:14:32.000Z</time>
      </trkpt>
      <trkpt lat="45.30356" lon="6.5469">
        <ele>1867.2</ele>
        <time>2019-08-05T05:14:39.000Z</time>
      </trkpt>
      <trkpt lat="45.30347" lon="6.54694">
        <ele>1866.3</ele>
        <time>2019-08-05T05:14:47.000Z</time>
      </trkpt>
      <trkpt lat="45.30338" lon="6.54699">
        <ele>1866.4</ele>
        <time>2019-08-05T05:14:54.000Z</time>
      </trkpt>
      <trkpt lat="45.3033" lon="6.54707">
        <ele>1866.9</ele>
        <time>2019-08-05T05:15:02.000Z</time>
      </trkpt>
      <trkpt lat="45.30322" lon="6.54715">
        <ele>1867.6</ele>
        <time>2019-08-05T05:15:10.000Z</time>
      </trkpt>
      <trkpt lat="45.30316" lon="6.54725">
        <ele>1868.5</ele>
        <time>2019-08-05T05:15:17.000Z</time>
      </trkpt>
      <trkpt lat="45.30312" lon="6.54737">
        <ele>1871.7</ele>
        <time>2019-08-05T05:15:51.000Z</time>
      </trkpt>
      <trkpt lat="45.30306" lon="6.54749">
        <ele>1872.4</ele>
        <time>2019-08-05T05:15:59.000Z</time>
      </trkpt>
      <trkpt lat="45.30302" lon="6.54762">
        <ele>1873.1</ele>
        <time>2019-08-05T05:16:06.000Z</time>
      </trkpt>
      <trkpt lat="45.30296" lon="6.54774">
        <ele>1874.9</ele>
        <time>2019-08-05T05:16:13.000Z</time>
      </trkpt>
      <trkpt lat="45.30292" lon="6.54787">
        <ele>1876.6</ele>
        <time>2019-08-05T05:16:21.000Z</time>
      </trkpt>
      <trkpt lat="45.30288" lon="6.54799">
        <ele>1876.1</ele>
        <time>2019-08-05T05:16:29.000Z</time>
      </trkpt>
      <trkpt lat="45.30283" lon="6.5481">
        <ele>1877</ele>
        <time>2019-08-05T05:16:36.000Z</time>
      </trkpt>
      <trkpt lat="45.30278" lon="6.54821">
        <ele>1877</ele>
        <time>2019-08-05T05:16:42.000Z</time>
      </trkpt>
      <trkpt lat="45.30274" lon="6.54834">
        <ele>1876.1</ele>
        <time>2019-08-05T05:16:50.000Z</time>
      </trkpt>
      <trkpt lat="45.30269" lon="6.54845">
        <ele>1876.4</ele>
        <time>2019-08-05T05:16:57.000Z</time>
      </trkpt>
      <trkpt lat="45.30264" lon="6.54856">
        <ele>1877.5</ele>
        <time>2019-08-05T05:17:04.000Z</time>
      </trkpt>
      <trkpt lat="45.30256" lon="6.54864">
        <ele>1877.7</ele>
        <time>2019-08-05T05:17:11.000Z</time>
      </trkpt>
      <trkpt lat="45.30247" lon="6.54868">
        <ele>1877.2</ele>
        <time>2019-08-05T05:17:18.000Z</time>
      </trkpt>
      <trkpt lat="45.3024" lon="6.54876">
        <ele>1877.1</ele>
        <time>2019-08-05T05:17:25.000Z</time>
      </trkpt>
      <trkpt lat="45.30232" lon="6.54885">
        <ele>1877.1</ele>
        <time>2019-08-05T05:17:32.000Z</time>
      </trkpt>
      <trkpt lat="45.30227" lon="6.54897">
        <ele>1875.6</ele>
        <time>2019-08-05T05:17:41.000Z</time>
      </trkpt>
      <trkpt lat="45.30224" lon="6.5491">
        <ele>1876.9</ele>
        <time>2019-08-05T05:17:49.000Z</time>
      </trkpt>
      <trkpt lat="45.30218" lon="6.54921">
        <ele>1878.8</ele>
        <time>2019-08-05T05:17:56.000Z</time>
      </trkpt>
      <trkpt lat="45.30215" lon="6.54933">
        <ele>1878.7</ele>
        <time>2019-08-05T05:18:02.000Z</time>
      </trkpt>
      <trkpt lat="45.30211" lon="6.54945">
        <ele>1879.5</ele>
        <time>2019-08-05T05:18:21.000Z</time>
      </trkpt>
      <trkpt lat="45.30209" lon="6.54958">
        <ele>1880.4</ele>
        <time>2019-08-05T05:18:30.000Z</time>
      </trkpt>
      <trkpt lat="45.30207" lon="6.5497">
        <ele>1883.1</ele>
        <time>2019-08-05T05:18:42.000Z</time>
      </trkpt>
      <trkpt lat="45.30207" lon="6.54984">
        <ele>1887.6</ele>
        <time>2019-08-05T05:18:56.000Z</time>
      </trkpt>
      <trkpt lat="45.30211" lon="6.54995">
        <ele>1887.7</ele>
        <time>2019-08-05T05:19:54.000Z</time>
      </trkpt>
      <trkpt lat="45.30207" lon="6.55007">
        <ele>1886.8</ele>
        <time>2019-08-05T05:20:04.000Z</time>
      </trkpt>
      <trkpt lat="45.30205" lon="6.55021">
        <ele>1889.3</ele>
        <time>2019-08-05T05:20:13.000Z</time>
      </trkpt>
      <trkpt lat="45.30201" lon="6.55033">
        <ele>1892</ele>
        <time>2019-08-05T05:20:20.000Z</time>
      </trkpt>
      <trkpt lat="45.30196" lon="6.55043">
        <ele>1893.3</ele>
        <time>2019-08-05T05:20:27.000Z</time>
      </trkpt>
      <trkpt lat="45.30192" lon="6.55056">
        <ele>1894.5</ele>
        <time>2019-08-05T05:20:35.000Z</time>
      </trkpt>
      <trkpt lat="45.30187" lon="6.55068">
        <ele>1894.8</ele>
        <time>2019-08-05T05:20:43.000Z</time>
      </trkpt>
      <trkpt lat="45.30185" lon="6.55081">
        <ele>1896.4</ele>
        <time>2019-08-05T05:20:51.000Z</time>
      </trkpt>
      <trkpt lat="45.30185" lon="6.55095">
        <ele>1905.3</ele>
        <time>2019-08-05T05:21:17.000Z</time>
      </trkpt>
      <trkpt lat="45.30182" lon="6.55108">
        <ele>1905.8</ele>
        <time>2019-08-05T05:21:26.000Z</time>
      </trkpt>
      <trkpt lat="45.30176" lon="6.55119">
        <ele>1907.9</ele>
        <time>2019-08-05T05:21:42.000Z</time>
      </trkpt>
      <trkpt lat="45.30172" lon="6.5513">
        <ele>1909</ele>
        <time>2019-08-05T05:21:51.000Z</time>
      </trkpt>
      <trkpt lat="45.30168" lon="6.55143">
        <ele>1910.1</ele>
        <time>2019-08-05T05:22:00.000Z</time>
      </trkpt>
      <trkpt lat="45.30164" lon="6.55154">
        <ele>1911.2</ele>
        <time>2019-08-05T05:22:14.000Z</time>
      </trkpt>
      <trkpt lat="45.3016" lon="6.55166">
        <ele>1913.4</ele>
        <time>2019-08-05T05:22:26.000Z</time>
      </trkpt>
      <trkpt lat="45.30157" lon="6.5518">
        <ele>1915</ele>
        <time>2019-08-05T05:22:39.000Z</time>
      </trkpt>
      <trkpt lat="45.30157" lon="6.55193">
        <ele>1915.6</ele>
        <time>2019-08-05T05:22:57.000Z</time>
      </trkpt>
      <trkpt lat="45.30158" lon="6.55206">
        <ele>1917</ele>
        <time>2019-08-05T05:23:11.000Z</time>
      </trkpt>
      <trkpt lat="45.30153" lon="6.55219">
        <ele>1917.4</ele>
        <time>2019-08-05T05:23:26.000Z</time>
      </trkpt>
      <trkpt lat="45.30157" lon="6.55231">
        <ele>1920</ele>
        <time>2019-08-05T05:23:37.000Z</time>
      </trkpt>
      <trkpt lat="45.30157" lon="6.55245">
        <ele>1922.5</ele>
        <time>2019-08-05T05:23:57.000Z</time>
      </trkpt>
      <trkpt lat="45.30157" lon="6.55259">
        <ele>1922</ele>
        <time>2019-08-05T05:24:06.000Z</time>
      </trkpt>
      <trkpt lat="45.30158" lon="6.55273">
        <ele>1924.3</ele>
        <time>2019-08-05T05:24:15.000Z</time>
      </trkpt>
      <trkpt lat="45.30159" lon="6.55287">
        <ele>1926</ele>
        <time>2019-08-05T05:24:24.000Z</time>
      </trkpt>
      <trkpt lat="45.30163" lon="6.55299">
        <ele>1927.9</ele>
        <time>2019-08-05T05:24:33.000Z</time>
      </trkpt>
      <trkpt lat="45.30164" lon="6.55312">
        <ele>1931.9</ele>
        <time>2019-08-05T05:24:46.000Z</time>
      </trkpt>
      <trkpt lat="45.30163" lon="6.55326">
        <ele>1932.4</ele>
        <time>2019-08-05T05:24:55.000Z</time>
      </trkpt>
      <trkpt lat="45.30164" lon="6.55339">
        <ele>1934.1</ele>
        <time>2019-08-05T05:25:05.000Z</time>
      </trkpt>
      <trkpt lat="45.30159" lon="6.55351">
        <ele>1934.7</ele>
        <time>2019-08-05T05:25:12.000Z</time>
      </trkpt>
      <trkpt lat="45.30154" lon="6.55363">
        <ele>1934.1</ele>
        <time>2019-08-05T05:25:20.000Z</time>
      </trkpt>
      <trkpt lat="45.30149" lon="6.55374">
        <ele>1933.2</ele>
        <time>2019-08-05T05:25:28.000Z</time>
      </trkpt>
      <trkpt lat="45.30143" lon="6.55384">
        <ele>1935.5</ele>
        <time>2019-08-05T05:25:38.000Z</time>
      </trkpt>
      <trkpt lat="45.30137" lon="6.55394">
        <ele>1937.5</ele>
        <time>2019-08-05T05:25:46.000Z</time>
      </trkpt>
      <trkpt lat="45.30129" lon="6.55401">
        <ele>1940.1</ele>
        <time>2019-08-05T05:25:55.000Z</time>
      </trkpt>
      <trkpt lat="45.30122" lon="6.5541">
        <ele>1943</ele>
        <time>2019-08-05T05:26:04.000Z</time>
      </trkpt>
      <trkpt lat="45.30114" lon="6.55419">
        <ele>1943.4</ele>
        <time>2019-08-05T05:26:11.000Z</time>
      </trkpt>
      <trkpt lat="45.30107" lon="6.55428">
        <ele>1942.6</ele>
        <time>2019-08-05T05:26:18.000Z</time>
      </trkpt>
      <trkpt lat="45.30099" lon="6.55436">
        <ele>1941.3</ele>
        <time>2019-08-05T05:26:25.000Z</time>
      </trkpt>
      <trkpt lat="45.30092" lon="6.55446">
        <ele>1941.2</ele>
        <time>2019-08-05T05:26:34.000Z</time>
      </trkpt>
      <trkpt lat="45.30085" lon="6.55454">
        <ele>1941.5</ele>
        <time>2019-08-05T05:26:42.000Z</time>
      </trkpt>
      <trkpt lat="45.30077" lon="6.55463">
        <ele>1942.6</ele>
        <time>2019-08-05T05:26:50.000Z</time>
      </trkpt>
      <trkpt lat="45.3007" lon="6.55474">
        <ele>1941.7</ele>
        <time>2019-08-05T05:26:59.000Z</time>
      </trkpt>
      <trkpt lat="45.30063" lon="6.55482">
        <ele>1942</ele>
        <time>2019-08-05T05:27:06.000Z</time>
      </trkpt>
      <trkpt lat="45.30055" lon="6.55491">
        <ele>1943</ele>
        <time>2019-08-05T05:27:14.000Z</time>
      </trkpt>
      <trkpt lat="45.30049" lon="6.55501">
        <ele>1943.4</ele>
        <time>2019-08-05T05:27:22.000Z</time>
      </trkpt>
      <trkpt lat="45.30042" lon="6.5551">
        <ele>1945.9</ele>
        <time>2019-08-05T05:27:33.000Z</time>
      </trkpt>
      <trkpt lat="45.30036" lon="6.5552">
        <ele>1949.4</ele>
        <time>2019-08-05T05:27:51.000Z</time>
      </trkpt>
      <trkpt lat="45.30029" lon="6.55531">
        <ele>1950.5</ele>
        <time>2019-08-05T05:27:59.000Z</time>
      </trkpt>
      <trkpt lat="45.30022" lon="6.55541">
        <ele>1950.3</ele>
        <time>2019-08-05T05:28:06.000Z</time>
      </trkpt>
      <trkpt lat="45.30017" lon="6.55551">
        <ele>1951.2</ele>
        <time>2019-08-05T05:28:13.000Z</time>
      </trkpt>
      <trkpt lat="45.30012" lon="6.55563">
        <ele>1952.4</ele>
        <time>2019-08-05T05:28:20.000Z</time>
      </trkpt>
      <trkpt lat="45.30006" lon="6.55573">
        <ele>1953.8</ele>
        <time>2019-08-05T05:28:28.000Z</time>
      </trkpt>
      <trkpt lat="45.29998" lon="6.55583">
        <ele>1954.3</ele>
        <time>2019-08-05T05:28:59.000Z</time>
      </trkpt>
      <trkpt lat="45.29992" lon="6.55592">
        <ele>1954.1</ele>
        <time>2019-08-05T05:29:07.000Z</time>
      </trkpt>
      <trkpt lat="45.29984" lon="6.556">
        <ele>1953.5</ele>
        <time>2019-08-05T05:29:15.000Z</time>
      </trkpt>
      <trkpt lat="45.29976" lon="6.55607">
        <ele>1952.8</ele>
        <time>2019-08-05T05:29:22.000Z</time>
      </trkpt>
      <trkpt lat="45.29969" lon="6.55616">
        <ele>1952.8</ele>
        <time>2019-08-05T05:29:29.000Z</time>
      </trkpt>
      <trkpt lat="45.29962" lon="6.55625">
        <ele>1953.8</ele>
        <time>2019-08-05T05:29:36.000Z</time>
      </trkpt>
      <trkpt lat="45.29954" lon="6.55632">
        <ele>1955.5</ele>
        <time>2019-08-05T05:29:43.000Z</time>
      </trkpt>
      <trkpt lat="45.29948" lon="6.55644">
        <ele>1957.2</ele>
        <time>2019-08-05T05:29:51.000Z</time>
      </trkpt>
      <trkpt lat="45.29941" lon="6.55655">
        <ele>1959.1</ele>
        <time>2019-08-05T05:29:58.000Z</time>
      </trkpt>
      <trkpt lat="45.29935" lon="6.55665">
        <ele>1961.4</ele>
        <time>2019-08-05T05:30:06.000Z</time>
      </trkpt>
      <trkpt lat="45.29929" lon="6.55677">
        <ele>1963.3</ele>
        <time>2019-08-05T05:30:14.000Z</time>
      </trkpt>
      <trkpt lat="45.29925" lon="6.55688">
        <ele>1965.1</ele>
        <time>2019-08-05T05:30:21.000Z</time>
      </trkpt>
      <trkpt lat="45.29917" lon="6.55697">
        <ele>1968</ele>
        <time>2019-08-05T05:30:30.000Z</time>
      </trkpt>
      <trkpt lat="45.29911" lon="6.55708">
        <ele>1969.7</ele>
        <time>2019-08-05T05:30:38.000Z</time>
      </trkpt>
      <trkpt lat="45.29905" lon="6.55719">
        <ele>1970.6</ele>
        <time>2019-08-05T05:30:46.000Z</time>
      </trkpt>
      <trkpt lat="45.29901" lon="6.55731">
        <ele>1970.1</ele>
        <time>2019-08-05T05:31:02.000Z</time>
      </trkpt>
      <trkpt lat="45.29894" lon="6.5574">
        <ele>1971.7</ele>
        <time>2019-08-05T05:31:10.000Z</time>
      </trkpt>
      <trkpt lat="45.29889" lon="6.55751">
        <ele>1971.4</ele>
        <time>2019-08-05T05:31:18.000Z</time>
      </trkpt>
      <trkpt lat="45.2988" lon="6.55758">
        <ele>1970.5</ele>
        <time>2019-08-05T05:31:26.000Z</time>
      </trkpt>
      <trkpt lat="45.29872" lon="6.55765">
        <ele>1970</ele>
        <time>2019-08-05T05:31:34.000Z</time>
      </trkpt>
      <trkpt lat="45.29864" lon="6.55773">
        <ele>1971.8</ele>
        <time>2019-08-05T05:31:44.000Z</time>
      </trkpt>
      <trkpt lat="45.29857" lon="6.55782">
        <ele>1974.9</ele>
        <time>2019-08-05T05:31:52.000Z</time>
      </trkpt>
      <trkpt lat="45.29849" lon="6.55791">
        <ele>1979.6</ele>
        <time>2019-08-05T05:32:03.000Z</time>
      </trkpt>
      <trkpt lat="45.29841" lon="6.55799">
        <ele>1982.4</ele>
        <time>2019-08-05T05:32:14.000Z</time>
      </trkpt>
      <trkpt lat="45.29832" lon="6.55802">
        <ele>1983.9</ele>
        <time>2019-08-05T05:32:24.000Z</time>
      </trkpt>
      <trkpt lat="45.29824" lon="6.55808">
        <ele>1984.9</ele>
        <time>2019-08-05T05:32:36.000Z</time>
      </trkpt>
      <trkpt lat="45.29815" lon="6.55813">
        <ele>1988.5</ele>
        <time>2019-08-05T05:32:55.000Z</time>
      </trkpt>
      <trkpt lat="45.29809" lon="6.55824">
        <ele>1988.5</ele>
        <time>2019-08-05T05:33:04.000Z</time>
      </trkpt>
      <trkpt lat="45.29801" lon="6.55833">
        <ele>1995.6</ele>
        <time>2019-08-05T05:33:20.000Z</time>
      </trkpt>
      <trkpt lat="45.29794" lon="6.55842">
        <ele>1993.9</ele>
        <time>2019-08-05T05:33:28.000Z</time>
      </trkpt>
      <trkpt lat="45.29786" lon="6.55849">
        <ele>1992.7</ele>
        <time>2019-08-05T05:33:36.000Z</time>
      </trkpt>
      <trkpt lat="45.29778" lon="6.55857">
        <ele>1992.2</ele>
        <time>2019-08-05T05:33:45.000Z</time>
      </trkpt>
      <trkpt lat="45.2977" lon="6.55864">
        <ele>1992.5</ele>
        <time>2019-08-05T05:39:25.000Z</time>
      </trkpt>
      <trkpt lat="45.29764" lon="6.55874">
        <ele>1992.2</ele>
        <time>2019-08-05T05:39:36.000Z</time>
      </trkpt>
      <trkpt lat="45.29756" lon="6.55883">
        <ele>1992.5</ele>
        <time>2019-08-05T05:39:49.000Z</time>
      </trkpt>
      <trkpt lat="45.29748" lon="6.55889">
        <ele>1992.2</ele>
        <time>2019-08-05T05:40:01.000Z</time>
      </trkpt>
      <trkpt lat="45.29741" lon="6.55897">
        <ele>1992.1</ele>
        <time>2019-08-05T05:40:26.000Z</time>
      </trkpt>
      <trkpt lat="45.29733" lon="6.55906">
        <ele>1992.5</ele>
        <time>2019-08-05T05:40:36.000Z</time>
      </trkpt>
      <trkpt lat="45.29726" lon="6.55915">
        <ele>1994</ele>
        <time>2019-08-05T05:40:50.000Z</time>
      </trkpt>
      <trkpt lat="45.29721" lon="6.55926">
        <ele>1996.2</ele>
        <time>2019-08-05T05:41:16.000Z</time>
      </trkpt>
      <trkpt lat="45.29712" lon="6.55929">
        <ele>1997.2</ele>
        <time>2019-08-05T05:41:27.000Z</time>
      </trkpt>
      <trkpt lat="45.29705" lon="6.55938">
        <ele>1999.6</ele>
        <time>2019-08-05T05:41:42.000Z</time>
      </trkpt>
      <trkpt lat="45.29697" lon="6.55946">
        <ele>2002.6</ele>
        <time>2019-08-05T05:42:11.000Z</time>
      </trkpt>
      <trkpt lat="45.29688" lon="6.5595">
        <ele>2005</ele>
        <time>2019-08-05T05:42:29.000Z</time>
      </trkpt>
      <trkpt lat="45.29679" lon="6.55953">
        <ele>2006.7</ele>
        <time>2019-08-05T05:42:48.000Z</time>
      </trkpt>
      <trkpt lat="45.29671" lon="6.55961">
        <ele>2008.2</ele>
        <time>2019-08-05T05:43:02.000Z</time>
      </trkpt>
      <trkpt lat="45.29664" lon="6.5597">
        <ele>2011.2</ele>
        <time>2019-08-05T05:43:57.000Z</time>
      </trkpt>
      <trkpt lat="45.29657" lon="6.55979">
        <ele>2013.9</ele>
        <time>2019-08-05T05:44:16.000Z</time>
      </trkpt>
      <trkpt lat="45.29649" lon="6.55987">
        <ele>2018</ele>
        <time>2019-08-05T05:44:33.000Z</time>
      </trkpt>
      <trkpt lat="45.29641" lon="6.55991">
        <ele>2020.2</ele>
        <time>2019-08-05T05:44:47.000Z</time>
      </trkpt>
      <trkpt lat="45.29633" lon="6.55998">
        <ele>2020.8</ele>
        <time>2019-08-05T05:45:10.000Z</time>
      </trkpt>
      <trkpt lat="45.29625" lon="6.56004">
        <ele>2021.3</ele>
        <time>2019-08-05T05:45:23.000Z</time>
      </trkpt>
      <trkpt lat="45.29616" lon="6.5601">
        <ele>2022.2</ele>
        <time>2019-08-05T05:45:36.000Z</time>
      </trkpt>
      <trkpt lat="45.2961" lon="6.56021">
        <ele>2027.5</ele>
        <time>2019-08-05T05:46:14.000Z</time>
      </trkpt>
      <trkpt lat="45.29603" lon="6.56028">
        <ele>2029.6</ele>
        <time>2019-08-05T05:46:24.000Z</time>
      </trkpt>
      <trkpt lat="45.29596" lon="6.56036">
        <ele>2031.5</ele>
        <time>2019-08-05T05:46:38.000Z</time>
      </trkpt>
      <trkpt lat="45.29588" lon="6.56043">
        <ele>2031.2</ele>
        <time>2019-08-05T05:46:53.000Z</time>
      </trkpt>
      <trkpt lat="45.29586" lon="6.56056">
        <ele>2033.1</ele>
        <time>2019-08-05T05:47:21.000Z</time>
      </trkpt>
      <trkpt lat="45.29584" lon="6.56069">
        <ele>2035.6</ele>
        <time>2019-08-05T05:47:42.000Z</time>
      </trkpt>
      <trkpt lat="45.29583" lon="6.56082">
        <ele>2042.4</ele>
        <time>2019-08-05T05:48:05.000Z</time>
      </trkpt>
      <trkpt lat="45.29585" lon="6.56096">
        <ele>2049</ele>
        <time>2019-08-05T05:49:17.000Z</time>
      </trkpt>
      <trkpt lat="45.29583" lon="6.5611">
        <ele>2049.9</ele>
        <time>2019-08-05T05:49:28.000Z</time>
      </trkpt>
      <trkpt lat="45.29579" lon="6.56123">
        <ele>2050.6</ele>
        <time>2019-08-05T05:49:40.000Z</time>
      </trkpt>
      <trkpt lat="45.29576" lon="6.56137">
        <ele>2051.7</ele>
        <time>2019-08-05T05:49:49.000Z</time>
      </trkpt>
      <trkpt lat="45.29573" lon="6.56149">
        <ele>2054.8</ele>
        <time>2019-08-05T05:50:01.000Z</time>
      </trkpt>
      <trkpt lat="45.29569" lon="6.56162">
        <ele>2058.6</ele>
        <time>2019-08-05T05:50:40.000Z</time>
      </trkpt>
      <trkpt lat="45.29569" lon="6.56175">
        <ele>2060.6</ele>
        <time>2019-08-05T05:50:50.000Z</time>
      </trkpt>
      <trkpt lat="45.29564" lon="6.56187">
        <ele>2062</ele>
        <time>2019-08-05T05:51:00.000Z</time>
      </trkpt>
      <trkpt lat="45.29557" lon="6.56198">
        <ele>2064.2</ele>
        <time>2019-08-05T05:51:08.000Z</time>
      </trkpt>
      <trkpt lat="45.29551" lon="6.56209">
        <ele>2064.4</ele>
        <time>2019-08-05T05:51:16.000Z</time>
      </trkpt>
      <trkpt lat="45.29546" lon="6.5622">
        <ele>2068.7</ele>
        <time>2019-08-05T05:51:31.000Z</time>
      </trkpt>
      <trkpt lat="45.29542" lon="6.56232">
        <ele>2071.9</ele>
        <time>2019-08-05T05:51:46.000Z</time>
      </trkpt>
      <trkpt lat="45.29536" lon="6.56241">
        <ele>2076.9</ele>
        <time>2019-08-05T05:51:59.000Z</time>
      </trkpt>
      <trkpt lat="45.2953" lon="6.56252">
        <ele>2076.2</ele>
        <time>2019-08-05T05:52:12.000Z</time>
      </trkpt>
      <trkpt lat="45.29525" lon="6.56263">
        <ele>2075.2</ele>
        <time>2019-08-05T05:52:18.000Z</time>
      </trkpt>
      <trkpt lat="45.29516" lon="6.56271">
        <ele>2079.8</ele>
        <time>2019-08-05T05:54:13.000Z</time>
      </trkpt>
      <trkpt lat="45.29508" lon="6.56281">
        <ele>2081.4</ele>
        <time>2019-08-05T05:54:24.000Z</time>
      </trkpt>
      <trkpt lat="45.29501" lon="6.56291">
        <ele>2082.4</ele>
        <time>2019-08-05T05:54:33.000Z</time>
      </trkpt>
      <trkpt lat="45.29493" lon="6.56297">
        <ele>2083.9</ele>
        <time>2019-08-05T05:55:17.000Z</time>
      </trkpt>
      <trkpt lat="45.29488" lon="6.56309">
        <ele>2085</ele>
        <time>2019-08-05T05:55:27.000Z</time>
      </trkpt>
      <trkpt lat="45.29484" lon="6.56322">
        <ele>2087.1</ele>
        <time>2019-08-05T05:55:38.000Z</time>
      </trkpt>
      <trkpt lat="45.29479" lon="6.56334">
        <ele>2089.4</ele>
        <time>2019-08-05T05:55:48.000Z</time>
      </trkpt>
      <trkpt lat="45.29474" lon="6.56345">
        <ele>2092.9</ele>
        <time>2019-08-05T05:55:58.000Z</time>
      </trkpt>
      <trkpt lat="45.29472" lon="6.56357">
        <ele>2095.4</ele>
        <time>2019-08-05T05:56:09.000Z</time>
      </trkpt>
      <trkpt lat="45.29464" lon="6.56365">
        <ele>2097</ele>
        <time>2019-08-05T05:56:42.000Z</time>
      </trkpt>
      <trkpt lat="45.29455" lon="6.56364">
        <ele>2096.6</ele>
        <time>2019-08-05T05:57:07.000Z</time>
      </trkpt>
      <trkpt lat="45.29446" lon="6.56359">
        <ele>2097</ele>
        <time>2019-08-05T05:57:15.000Z</time>
      </trkpt>
      <trkpt lat="45.29437" lon="6.56356">
        <ele>2098.6</ele>
        <time>2019-08-05T05:57:25.000Z</time>
      </trkpt>
      <trkpt lat="45.29428" lon="6.56352">
        <ele>2099.7</ele>
        <time>2019-08-05T05:57:40.000Z</time>
      </trkpt>
      <trkpt lat="45.2942" lon="6.56347">
        <ele>2100.4</ele>
        <time>2019-08-05T05:57:50.000Z</time>
      </trkpt>
      <trkpt lat="45.2941" lon="6.56343">
        <ele>2102.8</ele>
        <time>2019-08-05T05:58:03.000Z</time>
      </trkpt>
      <trkpt lat="45.29401" lon="6.56341">
        <ele>2104</ele>
        <time>2019-08-05T05:58:13.000Z</time>
      </trkpt>
      <trkpt lat="45.2939" lon="6.56339">
        <ele>2105.9</ele>
        <time>2019-08-05T05:58:24.000Z</time>
      </trkpt>
      <trkpt lat="45.29382" lon="6.56334">
        <ele>2108.4</ele>
        <time>2019-08-05T05:58:41.000Z</time>
      </trkpt>
      <trkpt lat="45.29372" lon="6.56333">
        <ele>2109.9</ele>
        <time>2019-08-05T05:58:50.000Z</time>
      </trkpt>
      <trkpt lat="45.29363" lon="6.56333">
        <ele>2109.5</ele>
        <time>2019-08-05T05:59:37.000Z</time>
      </trkpt>
      <trkpt lat="45.29353" lon="6.56329">
        <ele>2110.8</ele>
        <time>2019-08-05T05:59:48.000Z</time>
      </trkpt>
      <trkpt lat="45.29346" lon="6.56322">
        <ele>2112.4</ele>
        <time>2019-08-05T05:59:57.000Z</time>
      </trkpt>
      <trkpt lat="45.29342" lon="6.5631">
        <ele>2115.3</ele>
        <time>2019-08-05T06:00:06.000Z</time>
      </trkpt>
      <trkpt lat="45.29338" lon="6.56297">
        <ele>2117.8</ele>
        <time>2019-08-05T06:00:15.000Z</time>
      </trkpt>
      <trkpt lat="45.29339" lon="6.56284">
        <ele>2119</ele>
        <time>2019-08-05T06:00:22.000Z</time>
      </trkpt>
      <trkpt lat="45.29343" lon="6.56272">
        <ele>2120.2</ele>
        <time>2019-08-05T06:00:30.000Z</time>
      </trkpt>
      <trkpt lat="45.29349" lon="6.5626">
        <ele>2121.8</ele>
        <time>2019-08-05T06:00:38.000Z</time>
      </trkpt>
      <trkpt lat="45.29353" lon="6.56248">
        <ele>2123.5</ele>
        <time>2019-08-05T06:00:47.000Z</time>
      </trkpt>
      <trkpt lat="45.29359" lon="6.56238">
        <ele>2125.2</ele>
        <time>2019-08-05T06:00:55.000Z</time>
      </trkpt>
      <trkpt lat="45.29364" lon="6.56226">
        <ele>2127.2</ele>
        <time>2019-08-05T06:01:03.000Z</time>
      </trkpt>
      <trkpt lat="45.29354" lon="6.56224">
        <ele>2127.6</ele>
        <time>2019-08-05T06:01:14.000Z</time>
      </trkpt>
      <trkpt lat="45.29346" lon="6.5623">
        <ele>2129</ele>
        <time>2019-08-05T06:01:23.000Z</time>
      </trkpt>
      <trkpt lat="45.29337" lon="6.56237">
        <ele>2131.2</ele>
        <time>2019-08-05T06:01:40.000Z</time>
      </trkpt>
      <trkpt lat="45.2933" lon="6.56246">
        <ele>2128.1</ele>
        <time>2019-08-05T06:01:53.000Z</time>
      </trkpt>
      <trkpt lat="45.29321" lon="6.56251">
        <ele>2127.4</ele>
        <time>2019-08-05T06:02:33.000Z</time>
      </trkpt>
      <trkpt lat="45.29313" lon="6.56259">
        <ele>2127.2</ele>
        <time>2019-08-05T06:02:44.000Z</time>
      </trkpt>
      <trkpt lat="45.29305" lon="6.56267">
        <ele>2127.6</ele>
        <time>2019-08-05T06:02:53.000Z</time>
      </trkpt>
      <trkpt lat="45.29297" lon="6.56274">
        <ele>2128</ele>
        <time>2019-08-05T06:03:02.000Z</time>
      </trkpt>
      <trkpt lat="45.29288" lon="6.5628">
        <ele>2129.6</ele>
        <time>2019-08-05T06:03:09.000Z</time>
      </trkpt>
      <trkpt lat="45.2928" lon="6.56289">
        <ele>2131.9</ele>
        <time>2019-08-05T06:03:17.000Z</time>
      </trkpt>
      <trkpt lat="45.29271" lon="6.56292">
        <ele>2134.8</ele>
        <time>2019-08-05T06:03:28.000Z</time>
      </trkpt>
      <trkpt lat="45.29262" lon="6.56292">
        <ele>2135</ele>
        <time>2019-08-05T06:03:40.000Z</time>
      </trkpt>
      <trkpt lat="45.29259" lon="6.5628">
        <ele>2135.3</ele>
        <time>2019-08-05T06:03:50.000Z</time>
      </trkpt>
      <trkpt lat="45.29262" lon="6.56267">
        <ele>2133.1</ele>
        <time>2019-08-05T06:04:23.000Z</time>
      </trkpt>
      <trkpt lat="45.29268" lon="6.56258">
        <ele>2133.6</ele>
        <time>2019-08-05T06:04:31.000Z</time>
      </trkpt>
      <trkpt lat="45.29275" lon="6.56248">
        <ele>2134.7</ele>
        <time>2019-08-05T06:04:39.000Z</time>
      </trkpt>
      <trkpt lat="45.29281" lon="6.56238">
        <ele>2135.8</ele>
        <time>2019-08-05T06:04:46.000Z</time>
      </trkpt>
      <trkpt lat="45.29285" lon="6.56227">
        <ele>2138.2</ele>
        <time>2019-08-05T06:04:53.000Z</time>
      </trkpt>
      <trkpt lat="45.29285" lon="6.56214">
        <ele>2140.3</ele>
        <time>2019-08-05T06:05:01.000Z</time>
      </trkpt>
      <trkpt lat="45.29279" lon="6.56203">
        <ele>2143.8</ele>
        <time>2019-08-05T06:05:11.000Z</time>
      </trkpt>
      <trkpt lat="45.2927" lon="6.56204">
        <ele>2146</ele>
        <time>2019-08-05T06:05:22.000Z</time>
      </trkpt>
      <trkpt lat="45.29261" lon="6.56208">
        <ele>2147.1</ele>
        <time>2019-08-05T06:05:30.000Z</time>
      </trkpt>
      <trkpt lat="45.29253" lon="6.56214">
        <ele>2148</ele>
        <time>2019-08-05T06:05:39.000Z</time>
      </trkpt>
      <trkpt lat="45.29244" lon="6.5622">
        <ele>2149.6</ele>
        <time>2019-08-05T06:05:47.000Z</time>
      </trkpt>
      <trkpt lat="45.29234" lon="6.56222">
        <ele>2151.9</ele>
        <time>2019-08-05T06:05:54.000Z</time>
      </trkpt>
      <trkpt lat="45.29225" lon="6.56223">
        <ele>2153.9</ele>
        <time>2019-08-05T06:06:02.000Z</time>
      </trkpt>
      <trkpt lat="45.29216" lon="6.56222">
        <ele>2154.9</ele>
        <time>2019-08-05T06:06:12.000Z</time>
      </trkpt>
      <trkpt lat="45.29207" lon="6.56227">
        <ele>2154.6</ele>
        <time>2019-08-05T06:06:20.000Z</time>
      </trkpt>
      <trkpt lat="45.29197" lon="6.56229">
        <ele>2153.5</ele>
        <time>2019-08-05T06:06:46.000Z</time>
      </trkpt>
      <trkpt lat="45.29189" lon="6.56237">
        <ele>2153.6</ele>
        <time>2019-08-05T06:06:56.000Z</time>
      </trkpt>
      <trkpt lat="45.2918" lon="6.56239">
        <ele>2153.6</ele>
        <time>2019-08-05T06:07:05.000Z</time>
      </trkpt>
      <trkpt lat="45.2917" lon="6.56244">
        <ele>2153.8</ele>
        <time>2019-08-05T06:07:13.000Z</time>
      </trkpt>
      <trkpt lat="45.29162" lon="6.56251">
        <ele>2154.7</ele>
        <time>2019-08-05T06:07:22.000Z</time>
      </trkpt>
      <trkpt lat="45.29153" lon="6.56258">
        <ele>2154.6</ele>
        <time>2019-08-05T06:07:31.000Z</time>
      </trkpt>
      <trkpt lat="45.29144" lon="6.56265">
        <ele>2154</ele>
        <time>2019-08-05T06:07:41.000Z</time>
      </trkpt>
      <trkpt lat="45.29135" lon="6.5627">
        <ele>2157</ele>
        <time>2019-08-05T06:07:50.000Z</time>
      </trkpt>
      <trkpt lat="45.29126" lon="6.56276">
        <ele>2161.9</ele>
        <time>2019-08-05T06:07:59.000Z</time>
      </trkpt>
      <trkpt lat="45.29117" lon="6.56283">
        <ele>2163.8</ele>
        <time>2019-08-05T06:08:07.000Z</time>
      </trkpt>
      <trkpt lat="45.29108" lon="6.56288">
        <ele>2165.9</ele>
        <time>2019-08-05T06:08:15.000Z</time>
      </trkpt>
      <trkpt lat="45.29099" lon="6.56292">
        <ele>2167.8</ele>
        <time>2019-08-05T06:08:25.000Z</time>
      </trkpt>
      <trkpt lat="45.2909" lon="6.56298">
        <ele>2169.8</ele>
        <time>2019-08-05T06:08:33.000Z</time>
      </trkpt>
      <trkpt lat="45.29082" lon="6.56305">
        <ele>2170.8</ele>
        <time>2019-08-05T06:08:41.000Z</time>
      </trkpt>
      <trkpt lat="45.29073" lon="6.5631">
        <ele>2170.9</ele>
        <time>2019-08-05T06:08:51.000Z</time>
      </trkpt>
      <trkpt lat="45.29065" lon="6.56316">
        <ele>2171.4</ele>
        <time>2019-08-05T06:08:58.000Z</time>
      </trkpt>
      <trkpt lat="45.29056" lon="6.5632">
        <ele>2173.5</ele>
        <time>2019-08-05T06:09:12.000Z</time>
      </trkpt>
      <trkpt lat="45.29047" lon="6.56321">
        <ele>2168.5</ele>
        <time>2019-08-05T06:09:44.000Z</time>
      </trkpt>
      <trkpt lat="45.29038" lon="6.56323">
        <ele>2168.8</ele>
        <time>2019-08-05T06:09:53.000Z</time>
      </trkpt>
      <trkpt lat="45.29029" lon="6.56329">
        <ele>2168.8</ele>
        <time>2019-08-05T06:10:02.000Z</time>
      </trkpt>
      <trkpt lat="45.29019" lon="6.56332">
        <ele>2169.1</ele>
        <time>2019-08-05T06:10:12.000Z</time>
      </trkpt>
      <trkpt lat="45.29011" lon="6.5634">
        <ele>2171.5</ele>
        <time>2019-08-05T06:10:22.000Z</time>
      </trkpt>
      <trkpt lat="45.29006" lon="6.56351">
        <ele>2171.9</ele>
        <time>2019-08-05T06:10:32.000Z</time>
      </trkpt>
      <trkpt lat="45.28999" lon="6.5636">
        <ele>2172.3</ele>
        <time>2019-08-05T06:10:40.000Z</time>
      </trkpt>
      <trkpt lat="45.28991" lon="6.56367">
        <ele>2173</ele>
        <time>2019-08-05T06:10:51.000Z</time>
      </trkpt>
      <trkpt lat="45.28982" lon="6.56368">
        <ele>2176.7</ele>
        <time>2019-08-05T06:11:02.000Z</time>
      </trkpt>
      <trkpt lat="45.28973" lon="6.56368">
        <ele>2176.5</ele>
        <time>2019-08-05T06:11:53.000Z</time>
      </trkpt>
      <trkpt lat="45.28964" lon="6.56369">
        <ele>2177</ele>
        <time>2019-08-05T06:12:08.000Z</time>
      </trkpt>
      <trkpt lat="45.28954" lon="6.56368">
        <ele>2178.8</ele>
        <time>2019-08-05T06:12:17.000Z</time>
      </trkpt>
      <trkpt lat="45.28944" lon="6.56365">
        <ele>2181.7</ele>
        <time>2019-08-05T06:12:27.000Z</time>
      </trkpt>
      <trkpt lat="45.28936" lon="6.5636">
        <ele>2183.2</ele>
        <time>2019-08-05T06:12:42.000Z</time>
      </trkpt>
      <trkpt lat="45.28927" lon="6.56363">
        <ele>2183.5</ele>
        <time>2019-08-05T06:13:31.000Z</time>
      </trkpt>
      <trkpt lat="45.28918" lon="6.56363">
        <ele>2184.7</ele>
        <time>2019-08-05T06:13:44.000Z</time>
      </trkpt>
      <trkpt lat="45.28908" lon="6.5636">
        <ele>2186.3</ele>
        <time>2019-08-05T06:13:53.000Z</time>
      </trkpt>
      <trkpt lat="45.28899" lon="6.56358">
        <ele>2189.7</ele>
        <time>2019-08-05T06:14:04.000Z</time>
      </trkpt>
      <trkpt lat="45.2889" lon="6.56358">
        <ele>2197.2</ele>
        <time>2019-08-05T06:17:32.000Z</time>
      </trkpt>
      <trkpt lat="45.2888" lon="6.56356">
        <ele>2198</ele>
        <time>2019-08-05T06:17:41.000Z</time>
      </trkpt>
      <trkpt lat="45.28871" lon="6.56357">
        <ele>2200</ele>
        <time>2019-08-05T06:17:52.000Z</time>
      </trkpt>
      <trkpt lat="45.28862" lon="6.56353">
        <ele>2201.6</ele>
        <time>2019-08-05T06:18:02.000Z</time>
      </trkpt>
      <trkpt lat="45.28853" lon="6.56347">
        <ele>2203.1</ele>
        <time>2019-08-05T06:18:12.000Z</time>
      </trkpt>
      <trkpt lat="45.28844" lon="6.56347">
        <ele>2203.5</ele>
        <time>2019-08-05T06:18:23.000Z</time>
      </trkpt>
      <trkpt lat="45.28834" lon="6.56345">
        <ele>2205.8</ele>
        <time>2019-08-05T06:18:48.000Z</time>
      </trkpt>
      <trkpt lat="45.28825" lon="6.56344">
        <ele>2207.2</ele>
        <time>2019-08-05T06:18:58.000Z</time>
      </trkpt>
      <trkpt lat="45.28816" lon="6.56341">
        <ele>2210.4</ele>
        <time>2019-08-05T06:19:11.000Z</time>
      </trkpt>
      <trkpt lat="45.28806" lon="6.56342">
        <ele>2212.6</ele>
        <time>2019-08-05T06:19:22.000Z</time>
      </trkpt>
      <trkpt lat="45.28798" lon="6.56338">
        <ele>2214.7</ele>
        <time>2019-08-05T06:19:35.000Z</time>
      </trkpt>
      <trkpt lat="45.28789" lon="6.56334">
        <ele>2217.9</ele>
        <time>2019-08-05T06:19:50.000Z</time>
      </trkpt>
      <trkpt lat="45.2878" lon="6.56329">
        <ele>2220.6</ele>
        <time>2019-08-05T06:20:13.000Z</time>
      </trkpt>
      <trkpt lat="45.28772" lon="6.56323">
        <ele>2222.1</ele>
        <time>2019-08-05T06:20:32.000Z</time>
      </trkpt>
      <trkpt lat="45.28763" lon="6.56318">
        <ele>2223.1</ele>
        <time>2019-08-05T06:20:47.000Z</time>
      </trkpt>
      <trkpt lat="45.28755" lon="6.56312">
        <ele>2224.1</ele>
        <time>2019-08-05T06:21:05.000Z</time>
      </trkpt>
      <trkpt lat="45.28747" lon="6.56306">
        <ele>2223.6</ele>
        <time>2019-08-05T06:21:34.000Z</time>
      </trkpt>
      <trkpt lat="45.28738" lon="6.56302">
        <ele>2227.2</ele>
        <time>2019-08-05T06:21:56.000Z</time>
      </trkpt>
      <trkpt lat="45.28728" lon="6.563">
        <ele>2230.1</ele>
        <time>2019-08-05T06:22:17.000Z</time>
      </trkpt>
      <trkpt lat="45.28719" lon="6.563">
        <ele>2232.6</ele>
        <time>2019-08-05T06:22:27.000Z</time>
      </trkpt>
      <trkpt lat="45.28709" lon="6.563">
        <ele>2235.7</ele>
        <time>2019-08-05T06:22:45.000Z</time>
      </trkpt>
      <trkpt lat="45.287" lon="6.563">
        <ele>2238.6</ele>
        <time>2019-08-05T06:23:01.000Z</time>
      </trkpt>
      <trkpt lat="45.28691" lon="6.56299">
        <ele>2240.9</ele>
        <time>2019-08-05T06:23:13.000Z</time>
      </trkpt>
      <trkpt lat="45.28681" lon="6.56297">
        <ele>2242.5</ele>
        <time>2019-08-05T06:23:28.000Z</time>
      </trkpt>
      <trkpt lat="45.28673" lon="6.56292">
        <ele>2245.8</ele>
        <time>2019-08-05T06:23:45.000Z</time>
      </trkpt>
      <trkpt lat="45.28664" lon="6.56288">
        <ele>2248.2</ele>
        <time>2019-08-05T06:23:57.000Z</time>
      </trkpt>
      <trkpt lat="45.28654" lon="6.56286">
        <ele>2249.2</ele>
        <time>2019-08-05T06:24:13.000Z</time>
      </trkpt>
      <trkpt lat="45.28645" lon="6.56283">
        <ele>2251.7</ele>
        <time>2019-08-05T06:24:29.000Z</time>
      </trkpt>
      <trkpt lat="45.28635" lon="6.56282">
        <ele>2254.4</ele>
        <time>2019-08-05T06:24:46.000Z</time>
      </trkpt>
      <trkpt lat="45.28625" lon="6.56278">
        <ele>2254.5</ele>
        <time>2019-08-05T06:24:59.000Z</time>
      </trkpt>
      <trkpt lat="45.28617" lon="6.56272">
        <ele>2255.4</ele>
        <time>2019-08-05T06:25:10.000Z</time>
      </trkpt>
      <trkpt lat="45.28608" lon="6.56269">
        <ele>2257.2</ele>
        <time>2019-08-05T06:25:28.000Z</time>
      </trkpt>
      <trkpt lat="45.28598" lon="6.56271">
        <ele>2256.2</ele>
        <time>2019-08-05T06:25:45.000Z</time>
      </trkpt>
      <trkpt lat="45.28589" lon="6.56272">
        <ele>2256.6</ele>
        <time>2019-08-05T06:25:57.000Z</time>
      </trkpt>
      <trkpt lat="45.2858" lon="6.56269">
        <ele>2257.7</ele>
        <time>2019-08-05T06:26:05.000Z</time>
      </trkpt>
      <trkpt lat="45.2857" lon="6.56268">
        <ele>2259.6</ele>
        <time>2019-08-05T06:26:17.000Z</time>
      </trkpt>
      <trkpt lat="45.28561" lon="6.56265">
        <ele>2262</ele>
        <time>2019-08-05T06:26:27.000Z</time>
      </trkpt>
      <trkpt lat="45.28551" lon="6.56269">
        <ele>2264.5</ele>
        <time>2019-08-05T06:26:39.000Z</time>
      </trkpt>
      <trkpt lat="45.28543" lon="6.56272">
        <ele>2268.2</ele>
        <time>2019-08-05T06:26:50.000Z</time>
      </trkpt>
      <trkpt lat="45.28533" lon="6.56269">
        <ele>2271.4</ele>
        <time>2019-08-05T06:27:00.000Z</time>
      </trkpt>
      <trkpt lat="45.28524" lon="6.56269">
        <ele>2277.1</ele>
        <time>2019-08-05T06:27:10.000Z</time>
      </trkpt>
      <trkpt lat="45.28514" lon="6.56269">
        <ele>2278.8</ele>
        <time>2019-08-05T06:27:31.000Z</time>
      </trkpt>
      <trkpt lat="45.28505" lon="6.56264">
        <ele>2278.1</ele>
        <time>2019-08-05T06:27:43.000Z</time>
      </trkpt>
      <trkpt lat="45.28496" lon="6.56262">
        <ele>2277.7</ele>
        <time>2019-08-05T06:27:53.000Z</time>
      </trkpt>
      <trkpt lat="45.28487" lon="6.56261">
        <ele>2276.7</ele>
        <time>2019-08-05T06:28:02.000Z</time>
      </trkpt>
      <trkpt lat="45.28477" lon="6.56261">
        <ele>2277.9</ele>
        <time>2019-08-05T06:28:13.000Z</time>
      </trkpt>
      <trkpt lat="45.28467" lon="6.5626">
        <ele>2278.4</ele>
        <time>2019-08-05T06:28:23.000Z</time>
      </trkpt>
      <trkpt lat="45.28458" lon="6.5626">
        <ele>2277.1</ele>
        <time>2019-08-05T06:28:35.000Z</time>
      </trkpt>
      <trkpt lat="45.28448" lon="6.56259">
        <ele>2278.9</ele>
        <time>2019-08-05T06:28:45.000Z</time>
      </trkpt>
      <trkpt lat="45.28439" lon="6.56259">
        <ele>2280.9</ele>
        <time>2019-08-05T06:28:54.000Z</time>
      </trkpt>
      <trkpt lat="45.2843" lon="6.56255">
        <ele>2280.3</ele>
        <time>2019-08-05T06:29:04.000Z</time>
      </trkpt>
      <trkpt lat="45.28421" lon="6.5625">
        <ele>2280</ele>
        <time>2019-08-05T06:29:14.000Z</time>
      </trkpt>
      <trkpt lat="45.28413" lon="6.56244">
        <ele>2281.3</ele>
        <time>2019-08-05T06:29:23.000Z</time>
      </trkpt>
      <trkpt lat="45.28404" lon="6.56248">
        <ele>2282.5</ele>
        <time>2019-08-05T06:29:32.000Z</time>
      </trkpt>
      <trkpt lat="45.28395" lon="6.56252">
        <ele>2283.5</ele>
        <time>2019-08-05T06:29:41.000Z</time>
      </trkpt>
      <trkpt lat="45.28386" lon="6.56251">
        <ele>2285.8</ele>
        <time>2019-08-05T06:29:50.000Z</time>
      </trkpt>
      <trkpt lat="45.28377" lon="6.56246">
        <ele>2286.8</ele>
        <time>2019-08-05T06:29:57.000Z</time>
      </trkpt>
      <trkpt lat="45.28366" lon="6.56246">
        <ele>2289.5</ele>
        <time>2019-08-05T06:30:08.000Z</time>
      </trkpt>
      <trkpt lat="45.28357" lon="6.56245">
        <ele>2290.9</ele>
        <time>2019-08-05T06:30:14.000Z</time>
      </trkpt>
      <trkpt lat="45.28348" lon="6.56241">
        <ele>2293.1</ele>
        <time>2019-08-05T06:30:21.000Z</time>
      </trkpt>
      <trkpt lat="45.28339" lon="6.56235">
        <ele>2294.3</ele>
        <time>2019-08-05T06:30:28.000Z</time>
      </trkpt>
      <trkpt lat="45.28331" lon="6.56229">
        <ele>2294.7</ele>
        <time>2019-08-05T06:30:35.000Z</time>
      </trkpt>
      <trkpt lat="45.28323" lon="6.56223">
        <ele>2292.9</ele>
        <time>2019-08-05T06:30:43.000Z</time>
      </trkpt>
      <trkpt lat="45.28314" lon="6.56219">
        <ele>2291.5</ele>
        <time>2019-08-05T06:30:54.000Z</time>
      </trkpt>
      <trkpt lat="45.28305" lon="6.56217">
        <ele>2290.8</ele>
        <time>2019-08-05T06:31:01.000Z</time>
      </trkpt>
      <trkpt lat="45.28296" lon="6.56218">
        <ele>2290.9</ele>
        <time>2019-08-05T06:31:08.000Z</time>
      </trkpt>
      <trkpt lat="45.28287" lon="6.56215">
        <ele>2290.1</ele>
        <time>2019-08-05T06:31:19.000Z</time>
      </trkpt>
      <trkpt lat="45.28277" lon="6.56213">
        <ele>2289.4</ele>
        <time>2019-08-05T06:31:30.000Z</time>
      </trkpt>
      <trkpt lat="45.28268" lon="6.5621">
        <ele>2291.6</ele>
        <time>2019-08-05T06:31:40.000Z</time>
      </trkpt>
      <trkpt lat="45.28258" lon="6.56211">
        <ele>2292.6</ele>
        <time>2019-08-05T06:31:46.000Z</time>
      </trkpt>
      <trkpt lat="45.28249" lon="6.56211">
        <ele>2293.3</ele>
        <time>2019-08-05T06:31:54.000Z</time>
      </trkpt>
      <trkpt lat="45.2824" lon="6.5621">
        <ele>2293.5</ele>
        <time>2019-08-05T06:32:01.000Z</time>
      </trkpt>
      <trkpt lat="45.2823" lon="6.56214">
        <ele>2294.6</ele>
        <time>2019-08-05T06:32:10.000Z</time>
      </trkpt>
      <trkpt lat="45.28221" lon="6.56215">
        <ele>2297.6</ele>
        <time>2019-08-05T06:32:20.000Z</time>
      </trkpt>
      <trkpt lat="45.28212" lon="6.56212">
        <ele>2299.2</ele>
        <time>2019-08-05T06:32:41.000Z</time>
      </trkpt>
      <trkpt lat="45.28203" lon="6.56208">
        <ele>2300.8</ele>
        <time>2019-08-05T06:32:53.000Z</time>
      </trkpt>
      <trkpt lat="45.28193" lon="6.56209">
        <ele>2302.6</ele>
        <time>2019-08-05T06:33:05.000Z</time>
      </trkpt>
      <trkpt lat="45.28184" lon="6.56207">
        <ele>2303.6</ele>
        <time>2019-08-05T06:33:13.000Z</time>
      </trkpt>
      <trkpt lat="45.28174" lon="6.56204">
        <ele>2304.8</ele>
        <time>2019-08-05T06:33:21.000Z</time>
      </trkpt>
      <trkpt lat="45.28164" lon="6.56202">
        <ele>2306.2</ele>
        <time>2019-08-05T06:33:29.000Z</time>
      </trkpt>
      <trkpt lat="45.28155" lon="6.56201">
        <ele>2307.4</ele>
        <time>2019-08-05T06:33:37.000Z</time>
      </trkpt>
      <trkpt lat="45.28146" lon="6.56199">
        <ele>2307.1</ele>
        <time>2019-08-05T06:33:49.000Z</time>
      </trkpt>
      <trkpt lat="45.28137" lon="6.56195">
        <ele>2307.3</ele>
        <time>2019-08-05T06:33:58.000Z</time>
      </trkpt>
      <trkpt lat="45.28127" lon="6.56195">
        <ele>2306.8</ele>
        <time>2019-08-05T06:34:06.000Z</time>
      </trkpt>
      <trkpt lat="45.28118" lon="6.56194">
        <ele>2306.7</ele>
        <time>2019-08-05T06:34:16.000Z</time>
      </trkpt>
      <trkpt lat="45.28109" lon="6.5619">
        <ele>2304.7</ele>
        <time>2019-08-05T06:34:27.000Z</time>
      </trkpt>
      <trkpt lat="45.281" lon="6.56191">
        <ele>2306.1</ele>
        <time>2019-08-05T06:34:38.000Z</time>
      </trkpt>
      <trkpt lat="45.28091" lon="6.5619">
        <ele>2307.4</ele>
        <time>2019-08-05T06:34:47.000Z</time>
      </trkpt>
      <trkpt lat="45.28082" lon="6.56186">
        <ele>2308.1</ele>
        <time>2019-08-05T06:34:57.000Z</time>
      </trkpt>
      <trkpt lat="45.28073" lon="6.56182">
        <ele>2308.2</ele>
        <time>2019-08-05T06:35:12.000Z</time>
      </trkpt>
      <trkpt lat="45.28064" lon="6.56179">
        <ele>2308.3</ele>
        <time>2019-08-05T06:35:23.000Z</time>
      </trkpt>
      <trkpt lat="45.28054" lon="6.56179">
        <ele>2310.3</ele>
        <time>2019-08-05T06:35:33.000Z</time>
      </trkpt>
      <trkpt lat="45.28042" lon="6.56173">
        <ele>2313.5</ele>
        <time>2019-08-05T06:36:57.000Z</time>
      </trkpt>
      <trkpt lat="45.28032" lon="6.56176">
        <ele>2314.2</ele>
        <time>2019-08-05T06:37:08.000Z</time>
      </trkpt>
      <trkpt lat="45.28023" lon="6.56176">
        <ele>2316.7</ele>
        <time>2019-08-05T06:37:20.000Z</time>
      </trkpt>
      <trkpt lat="45.28016" lon="6.56167">
        <ele>2319.8</ele>
        <time>2019-08-05T06:37:31.000Z</time>
      </trkpt>
      <trkpt lat="45.28012" lon="6.56155">
        <ele>2322</ele>
        <time>2019-08-05T06:37:50.000Z</time>
      </trkpt>
      <trkpt lat="45.28006" lon="6.56145">
        <ele>2323.4</ele>
        <time>2019-08-05T06:37:58.000Z</time>
      </trkpt>
      <trkpt lat="45.27999" lon="6.56136">
        <ele>2324.8</ele>
        <time>2019-08-05T06:38:06.000Z</time>
      </trkpt>
      <trkpt lat="45.27993" lon="6.56125">
        <ele>2325.7</ele>
        <time>2019-08-05T06:38:16.000Z</time>
      </trkpt>
      <trkpt lat="45.27986" lon="6.56116">
        <ele>2327.6</ele>
        <time>2019-08-05T06:38:25.000Z</time>
      </trkpt>
      <trkpt lat="45.27984" lon="6.56103">
        <ele>2328.8</ele>
        <time>2019-08-05T06:38:52.000Z</time>
      </trkpt>
      <trkpt lat="45.27982" lon="6.56091">
        <ele>2330.5</ele>
        <time>2019-08-05T06:39:01.000Z</time>
      </trkpt>
      <trkpt lat="45.27982" lon="6.56078">
        <ele>2331.3</ele>
        <time>2019-08-05T06:39:11.000Z</time>
      </trkpt>
      <trkpt lat="45.27978" lon="6.56065">
        <ele>2333</ele>
        <time>2019-08-05T06:40:38.000Z</time>
      </trkpt>
      <trkpt lat="45.27967" lon="6.56064">
        <ele>2332.2</ele>
        <time>2019-08-05T06:40:46.000Z</time>
      </trkpt>
      <trkpt lat="45.27972" lon="6.56053">
        <ele>2332.7</ele>
        <time>2019-08-05T06:41:07.000Z</time>
      </trkpt>
      <trkpt lat="45.2797" lon="6.5604">
        <ele>2331.4</ele>
        <time>2019-08-05T06:41:23.000Z</time>
      </trkpt>
      <trkpt lat="45.2796" lon="6.56037">
        <ele>2330.1</ele>
        <time>2019-08-05T06:41:50.000Z</time>
      </trkpt>
      <trkpt lat="45.27964" lon="6.56025">
        <ele>2330.1</ele>
        <time>2019-08-05T06:42:01.000Z</time>
      </trkpt>
      <trkpt lat="45.27966" lon="6.56013">
        <ele>2334.4</ele>
        <time>2019-08-05T06:42:23.000Z</time>
      </trkpt>
      <trkpt lat="45.27968" lon="6.55999">
        <ele>2332</ele>
        <time>2019-08-05T06:42:52.000Z</time>
      </trkpt>
      <trkpt lat="45.2797" lon="6.55985">
        <ele>2333.7</ele>
        <time>2019-08-05T06:43:22.000Z</time>
      </trkpt>
      <trkpt lat="45.27968" lon="6.55973">
        <ele>2334.9</ele>
        <time>2019-08-05T06:43:51.000Z</time>
      </trkpt>
      <trkpt lat="45.27962" lon="6.55963">
        <ele>2339.1</ele>
        <time>2019-08-05T06:44:13.000Z</time>
      </trkpt>
      <trkpt lat="45.27957" lon="6.5595">
        <ele>2349.3</ele>
        <time>2019-08-05T06:45:51.000Z</time>
      </trkpt>
      <trkpt lat="45.27954" lon="6.55933">
        <ele>2354.8</ele>
        <time>2019-08-05T06:46:20.000Z</time>
      </trkpt>
      <trkpt lat="45.27948" lon="6.55923">
        <ele>2358.8</ele>
        <time>2019-08-05T06:46:48.000Z</time>
      </trkpt>
      <trkpt lat="45.27948" lon="6.5591">
        <ele>2374.9</ele>
        <time>2019-08-05T06:48:29.000Z</time>
      </trkpt>
      <trkpt lat="45.27944" lon="6.55898">
        <ele>2377.1</ele>
        <time>2019-08-05T06:48:47.000Z</time>
      </trkpt>
      <trkpt lat="45.27936" lon="6.55891">
        <ele>2378.7</ele>
        <time>2019-08-05T06:49:08.000Z</time>
      </trkpt>
      <trkpt lat="45.27927" lon="6.55887">
        <ele>2379.5</ele>
        <time>2019-08-05T06:50:00.000Z</time>
      </trkpt>
      <trkpt lat="45.27915" lon="6.55883">
        <ele>2382.5</ele>
        <time>2019-08-05T06:50:43.000Z</time>
      </trkpt>
      <trkpt lat="45.2791" lon="6.55871">
        <ele>2389</ele>
        <time>2019-08-05T06:51:36.000Z</time>
      </trkpt>
      <trkpt lat="45.27906" lon="6.55857">
        <ele>2400.9</ele>
        <time>2019-08-05T06:53:41.000Z</time>
      </trkpt>
      <trkpt lat="45.27905" lon="6.55843">
        <ele>2404.2</ele>
        <time>2019-08-05T06:54:48.000Z</time>
      </trkpt>
      <trkpt lat="45.27908" lon="6.55829">
        <ele>2409.6</ele>
        <time>2019-08-05T06:55:35.000Z</time>
      </trkpt>
      <trkpt lat="45.27903" lon="6.55818">
        <ele>2416.9</ele>
        <time>2019-08-05T06:56:14.000Z</time>
      </trkpt>
      <trkpt lat="45.27902" lon="6.55805">
        <ele>2420.8</ele>
        <time>2019-08-05T06:56:37.000Z</time>
      </trkpt>
      <trkpt lat="45.27904" lon="6.55792">
        <ele>2428.5</ele>
        <time>2019-08-05T06:57:23.000Z</time>
      </trkpt>
      <trkpt lat="45.27903" lon="6.55779">
        <ele>2435.5</ele>
        <time>2019-08-05T06:58:00.000Z</time>
      </trkpt>
      <trkpt lat="45.27907" lon="6.55768">
        <ele>2441.4</ele>
        <time>2019-08-05T06:58:24.000Z</time>
      </trkpt>
      <trkpt lat="45.27906" lon="6.55755">
        <ele>2443.7</ele>
        <time>2019-08-05T07:11:14.000Z</time>
      </trkpt>
      <trkpt lat="45.279" lon="6.55745">
        <ele>2442.5</ele>
        <time>2019-08-05T07:11:26.000Z</time>
      </trkpt>
      <trkpt lat="45.279" lon="6.55732">
        <ele>2444.9</ele>
        <time>2019-08-05T07:12:29.000Z</time>
      </trkpt>
      <trkpt lat="45.27896" lon="6.5572">
        <ele>2446.8</ele>
        <time>2019-08-05T07:12:58.000Z</time>
      </trkpt>
      <trkpt lat="45.2789" lon="6.5571">
        <ele>2448.6</ele>
        <time>2019-08-05T07:13:24.000Z</time>
      </trkpt>
      <trkpt lat="45.27881" lon="6.55706">
        <ele>2451.9</ele>
        <time>2019-08-05T07:13:55.000Z</time>
      </trkpt>
      <trkpt lat="45.27875" lon="6.55695">
        <ele>2454.5</ele>
        <time>2019-08-05T07:16:28.000Z</time>
      </trkpt>
      <trkpt lat="45.27867" lon="6.55689">
        <ele>2452.5</ele>
        <time>2019-08-05T07:17:05.000Z</time>
      </trkpt>
      <trkpt lat="45.27857" lon="6.55678">
        <ele>2461.3</ele>
        <time>2019-08-05T07:18:17.000Z</time>
      </trkpt>
      <trkpt lat="45.2785" lon="6.55669">
        <ele>2464.4</ele>
        <time>2019-08-05T07:19:06.000Z</time>
      </trkpt>
      <trkpt lat="45.2784" lon="6.55667">
        <ele>2469.1</ele>
        <time>2019-08-05T07:19:35.000Z</time>
      </trkpt>
      <trkpt lat="45.27831" lon="6.5567">
        <ele>2470</ele>
        <time>2019-08-05T07:20:33.000Z</time>
      </trkpt>
      <trkpt lat="45.27824" lon="6.55661">
        <ele>2473.3</ele>
        <time>2019-08-05T07:21:05.000Z</time>
      </trkpt>
      <trkpt lat="45.27815" lon="6.55656">
        <ele>2479.1</ele>
        <time>2019-08-05T07:22:22.000Z</time>
      </trkpt>
      <trkpt lat="45.27806" lon="6.55661">
        <ele>2481</ele>
        <time>2019-08-05T07:22:42.000Z</time>
      </trkpt>
      <trkpt lat="45.27796" lon="6.55654">
        <ele>2481.2</ele>
        <time>2019-08-05T07:23:24.000Z</time>
      </trkpt>
      <trkpt lat="45.27787" lon="6.55648">
        <ele>2484.9</ele>
        <time>2019-08-05T07:23:48.000Z</time>
      </trkpt>
      <trkpt lat="45.27779" lon="6.55642">
        <ele>2487.4</ele>
        <time>2019-08-05T07:24:19.000Z</time>
      </trkpt>
      <trkpt lat="45.27771" lon="6.55635">
        <ele>2492.6</ele>
        <time>2019-08-05T07:25:10.000Z</time>
      </trkpt>
      <trkpt lat="45.27759" lon="6.55648">
        <ele>2497.9</ele>
        <time>2019-08-05T07:26:14.000Z</time>
      </trkpt>
      <trkpt lat="45.27751" lon="6.55653">
        <ele>2501.5</ele>
        <time>2019-08-05T07:26:29.000Z</time>
      </trkpt>
      <trkpt lat="45.2774" lon="6.55651">
        <ele>2507.3</ele>
        <time>2019-08-05T07:26:57.000Z</time>
      </trkpt>
      <trkpt lat="45.27741" lon="6.55638">
        <ele>2512.1</ele>
        <time>2019-08-05T07:28:11.000Z</time>
      </trkpt>
      <trkpt lat="45.27733" lon="6.55645">
        <ele>2513.4</ele>
        <time>2019-08-05T07:28:34.000Z</time>
      </trkpt>
      <trkpt lat="45.27725" lon="6.55641">
        <ele>2514.1</ele>
        <time>2019-08-05T07:28:53.000Z</time>
      </trkpt>
      <trkpt lat="45.27718" lon="6.55633">
        <ele>2514.9</ele>
        <time>2019-08-05T07:29:00.000Z</time>
      </trkpt>
      <trkpt lat="45.27709" lon="6.55629">
        <ele>2516</ele>
        <time>2019-08-05T07:29:24.000Z</time>
      </trkpt>
      <trkpt lat="45.27701" lon="6.55621">
        <ele>2525.1</ele>
        <time>2019-08-05T07:31:12.000Z</time>
      </trkpt>
      <trkpt lat="45.27692" lon="6.55619">
        <ele>2526.7</ele>
        <time>2019-08-05T07:31:26.000Z</time>
      </trkpt>
      <trkpt lat="45.27681" lon="6.55618">
        <ele>2530.3</ele>
        <time>2019-08-05T07:31:47.000Z</time>
      </trkpt>
      <trkpt lat="45.27679" lon="6.55604">
        <ele>2531.3</ele>
        <time>2019-08-05T07:32:04.000Z</time>
      </trkpt>
      <trkpt lat="45.2767" lon="6.556">
        <ele>2531.9</ele>
        <time>2019-08-05T07:33:18.000Z</time>
      </trkpt>
      <trkpt lat="45.27663" lon="6.5559">
        <ele>2532.4</ele>
        <time>2019-08-05T07:33:51.000Z</time>
      </trkpt>
      <trkpt lat="45.27655" lon="6.55584">
        <ele>2540.1</ele>
        <time>2019-08-05T07:35:50.000Z</time>
      </trkpt>
      <trkpt lat="45.27646" lon="6.55582">
        <ele>2544</ele>
        <time>2019-08-05T07:37:11.000Z</time>
      </trkpt>
      <trkpt lat="45.27639" lon="6.55573">
        <ele>2546.7</ele>
        <time>2019-08-05T07:37:27.000Z</time>
      </trkpt>
      <trkpt lat="45.27631" lon="6.55565">
        <ele>2551</ele>
        <time>2019-08-05T07:37:50.000Z</time>
      </trkpt>
      <trkpt lat="45.27622" lon="6.5557">
        <ele>2561.7</ele>
        <time>2019-08-05T07:38:47.000Z</time>
      </trkpt>
      <trkpt lat="45.27614" lon="6.55575">
        <ele>2565.8</ele>
        <time>2019-08-05T07:39:10.000Z</time>
      </trkpt>
      <trkpt lat="45.27605" lon="6.55573">
        <ele>2567.5</ele>
        <time>2019-08-05T07:39:24.000Z</time>
      </trkpt>
      <trkpt lat="45.27598" lon="6.55561">
        <ele>2570</ele>
        <time>2019-08-05T07:39:50.000Z</time>
      </trkpt>
      <trkpt lat="45.27595" lon="6.55548">
        <ele>2572.6</ele>
        <time>2019-08-05T07:40:56.000Z</time>
      </trkpt>
      <trkpt lat="45.27598" lon="6.55536">
        <ele>2574.6</ele>
        <time>2019-08-05T07:41:25.000Z</time>
      </trkpt>
      <trkpt lat="45.27593" lon="6.55524">
        <ele>2578.5</ele>
        <time>2019-08-05T07:41:52.000Z</time>
      </trkpt>
      <trkpt lat="45.27592" lon="6.55511">
        <ele>2584.4</ele>
        <time>2019-08-05T07:43:44.000Z</time>
      </trkpt>
      <trkpt lat="45.2759" lon="6.55499">
        <ele>2585.6</ele>
        <time>2019-08-05T07:44:50.000Z</time>
      </trkpt>
      <trkpt lat="45.27587" lon="6.55487">
        <ele>2588.3</ele>
        <time>2019-08-05T07:45:10.000Z</time>
      </trkpt>
      <trkpt lat="45.27579" lon="6.55481">
        <ele>2591.1</ele>
        <time>2019-08-05T07:45:42.000Z</time>
      </trkpt>
      <trkpt lat="45.27574" lon="6.5547">
        <ele>2596.4</ele>
        <time>2019-08-05T07:47:28.000Z</time>
      </trkpt>
      <trkpt lat="45.27568" lon="6.5546">
        <ele>2600.9</ele>
        <time>2019-08-05T07:47:44.000Z</time>
      </trkpt>
      <trkpt lat="45.27561" lon="6.55452">
        <ele>2603.4</ele>
        <time>2019-08-05T07:48:21.000Z</time>
      </trkpt>
      <trkpt lat="45.27552" lon="6.55451">
        <ele>2611.2</ele>
        <time>2019-08-05T07:49:11.000Z</time>
      </trkpt>
      <trkpt lat="45.27543" lon="6.55447">
        <ele>2613.4</ele>
        <time>2019-08-05T07:50:11.000Z</time>
      </trkpt>
      <trkpt lat="45.27534" lon="6.55442">
        <ele>2615.3</ele>
        <time>2019-08-05T07:50:34.000Z</time>
      </trkpt>
      <trkpt lat="45.27525" lon="6.55447">
        <ele>2625.3</ele>
        <time>2019-08-05T07:53:39.000Z</time>
      </trkpt>
      <trkpt lat="45.27516" lon="6.55445">
        <ele>2627</ele>
        <time>2019-08-05T07:53:56.000Z</time>
      </trkpt>
      <trkpt lat="45.27509" lon="6.55437">
        <ele>2630.8</ele>
        <time>2019-08-05T07:54:28.000Z</time>
      </trkpt>
      <trkpt lat="45.27502" lon="6.55428">
        <ele>2634.3</ele>
        <time>2019-08-05T07:55:28.000Z</time>
      </trkpt>
      <trkpt lat="45.27495" lon="6.55419">
        <ele>2635.8</ele>
        <time>2019-08-05T07:56:12.000Z</time>
      </trkpt>
      <trkpt lat="45.2749" lon="6.55409">
        <ele>2638.3</ele>
        <time>2019-08-05T07:56:45.000Z</time>
      </trkpt>
      <trkpt lat="45.27482" lon="6.55403">
        <ele>2640.7</ele>
        <time>2019-08-05T07:57:10.000Z</time>
      </trkpt>
      <trkpt lat="45.27484" lon="6.5539">
        <ele>2649.9</ele>
        <time>2019-08-05T07:59:11.000Z</time>
      </trkpt>
      <trkpt lat="45.27476" lon="6.55382">
        <ele>2652.8</ele>
        <time>2019-08-05T07:59:31.000Z</time>
      </trkpt>
      <trkpt lat="45.27471" lon="6.55371">
        <ele>2653.4</ele>
        <time>2019-08-05T07:59:45.000Z</time>
      </trkpt>
      <trkpt lat="45.27463" lon="6.55364">
        <ele>2653.8</ele>
        <time>2019-08-05T08:00:05.000Z</time>
      </trkpt>
      <trkpt lat="45.27454" lon="6.55365">
        <ele>2657.9</ele>
        <time>2019-08-05T08:00:30.000Z</time>
      </trkpt>
      <trkpt lat="45.27444" lon="6.55366">
        <ele>2656.9</ele>
        <time>2019-08-05T08:01:04.000Z</time>
      </trkpt>
      <trkpt lat="45.27435" lon="6.55363">
        <ele>2658</ele>
        <time>2019-08-05T08:01:18.000Z</time>
      </trkpt>
      <trkpt lat="45.27426" lon="6.55366">
        <ele>2665.2</ele>
        <time>2019-08-05T08:01:58.000Z</time>
      </trkpt>
      <trkpt lat="45.27417" lon="6.55369">
        <ele>2669</ele>
        <time>2019-08-05T08:03:08.000Z</time>
      </trkpt>
      <trkpt lat="45.27408" lon="6.55371">
        <ele>2669.7</ele>
        <time>2019-08-05T08:03:21.000Z</time>
      </trkpt>
      <trkpt lat="45.27399" lon="6.55377">
        <ele>2670.6</ele>
        <time>2019-08-05T08:03:32.000Z</time>
      </trkpt>
      <trkpt lat="45.27393" lon="6.55386">
        <ele>2674.7</ele>
        <time>2019-08-05T08:03:41.000Z</time>
      </trkpt>
      <trkpt lat="45.27385" lon="6.55394">
        <ele>2681.2</ele>
        <time>2019-08-05T08:03:54.000Z</time>
      </trkpt>
      <trkpt lat="45.27377" lon="6.554">
        <ele>2684.7</ele>
        <time>2019-08-05T08:04:10.000Z</time>
      </trkpt>
      <trkpt lat="45.27369" lon="6.55408">
        <ele>2688.2</ele>
        <time>2019-08-05T08:04:36.000Z</time>
      </trkpt>
      <trkpt lat="45.2736" lon="6.55416">
        <ele>2689.2</ele>
        <time>2019-08-05T08:05:07.000Z</time>
      </trkpt>
      <trkpt lat="45.27351" lon="6.55419">
        <ele>2688.9</ele>
        <time>2019-08-05T08:05:18.000Z</time>
      </trkpt>
      <trkpt lat="45.27343" lon="6.55412">
        <ele>2688.8</ele>
        <time>2019-08-05T08:05:49.000Z</time>
      </trkpt>
      <trkpt lat="45.27342" lon="6.554">
        <ele>2689.3</ele>
        <time>2019-08-05T08:06:07.000Z</time>
      </trkpt>
      <trkpt lat="45.27341" lon="6.55386">
        <ele>2690.4</ele>
        <time>2019-08-05T08:06:51.000Z</time>
      </trkpt>
      <trkpt lat="45.27341" lon="6.55373">
        <ele>2688.4</ele>
        <time>2019-08-05T08:07:09.000Z</time>
      </trkpt>
      <trkpt lat="45.27338" lon="6.55359">
        <ele>2697.9</ele>
        <time>2019-08-05T08:09:14.000Z</time>
      </trkpt>
      <trkpt lat="45.2734" lon="6.55346">
        <ele>2699.2</ele>
        <time>2019-08-05T08:09:30.000Z</time>
      </trkpt>
      <trkpt lat="45.2734" lon="6.55333">
        <ele>2699.8</ele>
        <time>2019-08-05T08:09:40.000Z</time>
      </trkpt>
      <trkpt lat="45.27339" lon="6.5532">
        <ele>2702.2</ele>
        <time>2019-08-05T08:09:52.000Z</time>
      </trkpt>
      <trkpt lat="45.27338" lon="6.55307">
        <ele>2704.1</ele>
        <time>2019-08-05T08:10:03.000Z</time>
      </trkpt>
      <trkpt lat="45.27337" lon="6.55294">
        <ele>2701.8</ele>
        <time>2019-08-05T08:10:21.000Z</time>
      </trkpt>
      <trkpt lat="45.27336" lon="6.55281">
        <ele>2701.6</ele>
        <time>2019-08-05T08:10:43.000Z</time>
      </trkpt>
      <trkpt lat="45.27339" lon="6.55268">
        <ele>2705.2</ele>
        <time>2019-08-05T08:11:07.000Z</time>
      </trkpt>
      <trkpt lat="45.2734" lon="6.55255">
        <ele>2708.7</ele>
        <time>2019-08-05T08:12:11.000Z</time>
      </trkpt>
      <trkpt lat="45.2734" lon="6.5524">
        <ele>2711.3</ele>
        <time>2019-08-05T08:12:23.000Z</time>
      </trkpt>
      <trkpt lat="45.27344" lon="6.55229">
        <ele>2713.3</ele>
        <time>2019-08-05T08:12:35.000Z</time>
      </trkpt>
      <trkpt lat="45.27345" lon="6.55216">
        <ele>2712.5</ele>
        <time>2019-08-05T08:12:54.000Z</time>
      </trkpt>
      <trkpt lat="45.27343" lon="6.55202">
        <ele>2713.3</ele>
        <time>2019-08-05T08:13:13.000Z</time>
      </trkpt>
      <trkpt lat="45.27337" lon="6.55193">
        <ele>2715.4</ele>
        <time>2019-08-05T08:13:39.000Z</time>
      </trkpt>
      <trkpt lat="45.27327" lon="6.55194">
        <ele>2718.6</ele>
        <time>2019-08-05T08:13:57.000Z</time>
      </trkpt>
      <trkpt lat="45.27316" lon="6.5519">
        <ele>2722.7</ele>
        <time>2019-08-05T08:14:36.000Z</time>
      </trkpt>
      <trkpt lat="45.27307" lon="6.55187">
        <ele>2725.2</ele>
        <time>2019-08-05T08:14:54.000Z</time>
      </trkpt>
      <trkpt lat="45.27299" lon="6.55181">
        <ele>2730.8</ele>
        <time>2019-08-05T08:15:43.000Z</time>
      </trkpt>
      <trkpt lat="45.27289" lon="6.55181">
        <ele>2736.6</ele>
        <time>2019-08-05T08:16:50.000Z</time>
      </trkpt>
      <trkpt lat="45.2728" lon="6.55179">
        <ele>2739.9</ele>
        <time>2019-08-05T08:17:02.000Z</time>
      </trkpt>
      <trkpt lat="45.27271" lon="6.55179">
        <ele>2747.5</ele>
        <time>2019-08-05T08:17:18.000Z</time>
      </trkpt>
      <trkpt lat="45.27261" lon="6.55179">
        <ele>2752.5</ele>
        <time>2019-08-05T08:17:37.000Z</time>
      </trkpt>
      <trkpt lat="45.27251" lon="6.55178">
        <ele>2756.4</ele>
        <time>2019-08-05T08:17:53.000Z</time>
      </trkpt>
      <trkpt lat="45.27242" lon="6.5518">
        <ele>2759.5</ele>
        <time>2019-08-05T08:18:18.000Z</time>
      </trkpt>
      <trkpt lat="45.27231" lon="6.55177">
        <ele>2763.3</ele>
        <time>2019-08-05T08:18:49.000Z</time>
      </trkpt>
      <trkpt lat="45.27222" lon="6.55173">
        <ele>2767.8</ele>
        <time>2019-08-05T08:19:28.000Z</time>
      </trkpt>
      <trkpt lat="45.27213" lon="6.55171">
        <ele>2769.8</ele>
        <time>2019-08-05T08:19:43.000Z</time>
      </trkpt>
      <trkpt lat="45.27204" lon="6.55169">
        <ele>2772.3</ele>
        <time>2019-08-05T08:20:02.000Z</time>
      </trkpt>
      <trkpt lat="45.27194" lon="6.55168">
        <ele>2775.9</ele>
        <time>2019-08-05T08:20:18.000Z</time>
      </trkpt>
      <trkpt lat="45.27185" lon="6.5517">
        <ele>2779.9</ele>
        <time>2019-08-05T08:20:56.000Z</time>
      </trkpt>
      <trkpt lat="45.27176" lon="6.55166">
        <ele>2778.7</ele>
        <time>2019-08-05T08:21:07.000Z</time>
      </trkpt>
      <trkpt lat="45.27167" lon="6.5516">
        <ele>2777.1</ele>
        <time>2019-08-05T08:21:25.000Z</time>
      </trkpt>
      <trkpt lat="45.27159" lon="6.55155">
        <ele>2777.9</ele>
        <time>2019-08-05T08:23:07.000Z</time>
      </trkpt>
      <trkpt lat="45.2715" lon="6.55148">
        <ele>2776.6</ele>
        <time>2019-08-05T08:23:18.000Z</time>
      </trkpt>
      <trkpt lat="45.27152" lon="6.55135">
        <ele>2775.8</ele>
        <time>2019-08-05T08:23:31.000Z</time>
      </trkpt>
      <trkpt lat="45.27158" lon="6.55124">
        <ele>2777</ele>
        <time>2019-08-05T08:24:03.000Z</time>
      </trkpt>
      <trkpt lat="45.27164" lon="6.55114">
        <ele>2778.9</ele>
        <time>2019-08-05T08:24:12.000Z</time>
      </trkpt>
      <trkpt lat="45.27172" lon="6.55106">
        <ele>2781.6</ele>
        <time>2019-08-05T08:24:22.000Z</time>
      </trkpt>
      <trkpt lat="45.27176" lon="6.55094">
        <ele>2786.3</ele>
        <time>2019-08-05T08:24:37.000Z</time>
      </trkpt>
      <trkpt lat="45.27174" lon="6.55081">
        <ele>2790.6</ele>
        <time>2019-08-05T08:24:53.000Z</time>
      </trkpt>
      <trkpt lat="45.27166" lon="6.55072">
        <ele>2791.8</ele>
        <time>2019-08-05T08:25:52.000Z</time>
      </trkpt>
      <trkpt lat="45.27159" lon="6.55064">
        <ele>2795</ele>
        <time>2019-08-05T08:26:05.000Z</time>
      </trkpt>
      <trkpt lat="45.27152" lon="6.55055">
        <ele>2802.3</ele>
        <time>2019-08-05T08:26:22.000Z</time>
      </trkpt>
      <trkpt lat="45.27143" lon="6.55062">
        <ele>2812.4</ele>
        <time>2019-08-05T08:32:28.000Z</time>
      </trkpt>
      <trkpt lat="45.27134" lon="6.55063">
        <ele>2813.7</ele>
        <time>2019-08-05T08:32:36.000Z</time>
      </trkpt>
      <trkpt lat="45.27124" lon="6.55064">
        <ele>2815.8</ele>
        <time>2019-08-05T08:32:45.000Z</time>
      </trkpt>
      <trkpt lat="45.27115" lon="6.55065">
        <ele>2816.4</ele>
        <time>2019-08-05T08:32:57.000Z</time>
      </trkpt>
      <trkpt lat="45.27106" lon="6.55064">
        <ele>2818.8</ele>
        <time>2019-08-05T08:33:34.000Z</time>
      </trkpt>
      <trkpt lat="45.27097" lon="6.55062">
        <ele>2820.7</ele>
        <time>2019-08-05T08:33:49.000Z</time>
      </trkpt>
      <trkpt lat="45.27088" lon="6.5506">
        <ele>2824.4</ele>
        <time>2019-08-05T08:34:11.000Z</time>
      </trkpt>
      <trkpt lat="45.27079" lon="6.55055">
        <ele>2828</ele>
        <time>2019-08-05T08:34:32.000Z</time>
      </trkpt>
      <trkpt lat="45.2707" lon="6.55053">
        <ele>2830.8</ele>
        <time>2019-08-05T08:36:05.000Z</time>
      </trkpt>
      <trkpt lat="45.27056" lon="6.55051">
        <ele>2833.1</ele>
        <time>2019-08-05T08:36:45.000Z</time>
      </trkpt>
      <trkpt lat="45.27041" lon="6.55054">
        <ele>2837.1</ele>
        <time>2019-08-05T08:37:34.000Z</time>
      </trkpt>
      <trkpt lat="45.27033" lon="6.55058">
        <ele>2842</ele>
        <time>2019-08-05T08:38:19.000Z</time>
      </trkpt>
      <trkpt lat="45.2702" lon="6.55055">
        <ele>2849.4</ele>
        <time>2019-08-05T08:39:10.000Z</time>
      </trkpt>
      <trkpt lat="45.27011" lon="6.55058">
        <ele>2851.9</ele>
        <time>2019-08-05T08:39:42.000Z</time>
      </trkpt>
      <trkpt lat="45.27007" lon="6.55071">
        <ele>2853.8</ele>
        <time>2019-08-05T08:42:03.000Z</time>
      </trkpt>
      <trkpt lat="45.27011" lon="6.55083">
        <ele>2855.6</ele>
        <time>2019-08-05T08:42:24.000Z</time>
      </trkpt>
      <trkpt lat="45.27016" lon="6.55094">
        <ele>2855.7</ele>
        <time>2019-08-05T08:43:03.000Z</time>
      </trkpt>
      <trkpt lat="45.27022" lon="6.55104">
        <ele>2860.4</ele>
        <time>2019-08-05T08:43:23.000Z</time>
      </trkpt>
      <trkpt lat="45.27019" lon="6.55117">
        <ele>2868</ele>
        <time>2019-08-05T08:45:51.000Z</time>
      </trkpt>
      <trkpt lat="45.2701" lon="6.55117">
        <ele>2870.2</ele>
        <time>2019-08-05T08:46:05.000Z</time>
      </trkpt>
      <trkpt lat="45.27001" lon="6.55112">
        <ele>2871.9</ele>
        <time>2019-08-05T08:46:15.000Z</time>
      </trkpt>
      <trkpt lat="45.26994" lon="6.55104">
        <ele>2874</ele>
        <time>2019-08-05T08:46:28.000Z</time>
      </trkpt>
      <trkpt lat="45.26987" lon="6.55096">
        <ele>2878.1</ele>
        <time>2019-08-05T08:46:48.000Z</time>
      </trkpt>
      <trkpt lat="45.26978" lon="6.55094">
        <ele>2879.4</ele>
        <time>2019-08-05T08:47:11.000Z</time>
      </trkpt>
      <trkpt lat="45.26969" lon="6.551">
        <ele>2879.4</ele>
        <time>2019-08-05T08:47:47.000Z</time>
      </trkpt>
      <trkpt lat="45.26961" lon="6.55103">
        <ele>2882.2</ele>
        <time>2019-08-05T08:49:04.000Z</time>
      </trkpt>
      <trkpt lat="45.26951" lon="6.55105">
        <ele>2884.9</ele>
        <time>2019-08-05T08:49:20.000Z</time>
      </trkpt>
      <trkpt lat="45.26942" lon="6.5511">
        <ele>2888.4</ele>
        <time>2019-08-05T08:49:54.000Z</time>
      </trkpt>
      <trkpt lat="45.26934" lon="6.55117">
        <ele>2890.2</ele>
        <time>2019-08-05T08:50:09.000Z</time>
      </trkpt>
      <trkpt lat="45.26928" lon="6.55132">
        <ele>2892.6</ele>
        <time>2019-08-05T08:50:46.000Z</time>
      </trkpt>
      <trkpt lat="45.26931" lon="6.5515">
        <ele>2898.2</ele>
        <time>2019-08-05T08:51:38.000Z</time>
      </trkpt>
      <trkpt lat="45.26935" lon="6.55162">
        <ele>2903</ele>
        <time>2019-08-05T08:52:01.000Z</time>
      </trkpt>
      <trkpt lat="45.2694" lon="6.55174">
        <ele>2905</ele>
        <time>2019-08-05T08:52:14.000Z</time>
      </trkpt>
      <trkpt lat="45.26931" lon="6.55179">
        <ele>2912</ele>
        <time>2019-08-05T08:53:45.000Z</time>
      </trkpt>
      <trkpt lat="45.26923" lon="6.55172">
        <ele>2913.6</ele>
        <time>2019-08-05T08:54:48.000Z</time>
      </trkpt>
      <trkpt lat="45.26915" lon="6.55166">
        <ele>2915.4</ele>
        <time>2019-08-05T08:54:58.000Z</time>
      </trkpt>
      <trkpt lat="45.26907" lon="6.55159">
        <ele>2916.9</ele>
        <time>2019-08-05T08:55:12.000Z</time>
      </trkpt>
      <trkpt lat="45.269" lon="6.5515">
        <ele>2918.1</ele>
        <time>2019-08-05T08:55:35.000Z</time>
      </trkpt>
      <trkpt lat="45.26892" lon="6.55141">
        <ele>2917.5</ele>
        <time>2019-08-05T08:55:52.000Z</time>
      </trkpt>
      <trkpt lat="45.26887" lon="6.55131">
        <ele>2917.9</ele>
        <time>2019-08-05T08:56:02.000Z</time>
      </trkpt>
      <trkpt lat="45.26878" lon="6.55125">
        <ele>2920.6</ele>
        <time>2019-08-05T08:56:18.000Z</time>
      </trkpt>
      <trkpt lat="45.2687" lon="6.55119">
        <ele>2924.8</ele>
        <time>2019-08-05T08:56:48.000Z</time>
      </trkpt>
      <trkpt lat="45.26862" lon="6.5511">
        <ele>2928.7</ele>
        <time>2019-08-05T08:57:18.000Z</time>
      </trkpt>
      <trkpt lat="45.26852" lon="6.55099">
        <ele>2933.9</ele>
        <time>2019-08-05T08:57:59.000Z</time>
      </trkpt>
      <trkpt lat="45.26845" lon="6.55092">
        <ele>2936.5</ele>
        <time>2019-08-05T08:58:23.000Z</time>
      </trkpt>
      <trkpt lat="45.26836" lon="6.55095">
        <ele>2940.4</ele>
        <time>2019-08-05T08:59:31.000Z</time>
      </trkpt>
      <trkpt lat="45.26828" lon="6.55101">
        <ele>2942.5</ele>
        <time>2019-08-05T08:59:46.000Z</time>
      </trkpt>
      <trkpt lat="45.2682" lon="6.55107">
        <ele>2943.1</ele>
        <time>2019-08-05T08:59:57.000Z</time>
      </trkpt>
      <trkpt lat="45.26811" lon="6.55112">
        <ele>2945.9</ele>
        <time>2019-08-05T09:00:14.000Z</time>
      </trkpt>
      <trkpt lat="45.26802" lon="6.55115">
        <ele>2950</ele>
        <time>2019-08-05T09:00:30.000Z</time>
      </trkpt>
      <trkpt lat="45.26794" lon="6.55121">
        <ele>2951.9</ele>
        <time>2019-08-05T09:01:09.000Z</time>
      </trkpt>
      <trkpt lat="45.26786" lon="6.55129">
        <ele>2954.5</ele>
        <time>2019-08-05T09:02:14.000Z</time>
      </trkpt>
      <trkpt lat="45.26777" lon="6.55131">
        <ele>2955.8</ele>
        <time>2019-08-05T09:02:28.000Z</time>
      </trkpt>
      <trkpt lat="45.26768" lon="6.55135">
        <ele>2959.5</ele>
        <time>2019-08-05T09:02:49.000Z</time>
      </trkpt>
      <trkpt lat="45.2676" lon="6.55143">
        <ele>2963.6</ele>
        <time>2019-08-05T09:03:23.000Z</time>
      </trkpt>
      <trkpt lat="45.26756" lon="6.55155">
        <ele>2966.5</ele>
        <time>2019-08-05T09:03:41.000Z</time>
      </trkpt>
      <trkpt lat="45.26759" lon="6.55168">
        <ele>2972.5</ele>
        <time>2019-08-05T09:04:59.000Z</time>
      </trkpt>
      <trkpt lat="45.26765" lon="6.55179">
        <ele>2972.8</ele>
        <time>2019-08-05T09:05:11.000Z</time>
      </trkpt>
      <trkpt lat="45.26771" lon="6.55189">
        <ele>2973.6</ele>
        <time>2019-08-05T09:05:21.000Z</time>
      </trkpt>
      <trkpt lat="45.26776" lon="6.552">
        <ele>2974.8</ele>
        <time>2019-08-05T09:05:31.000Z</time>
      </trkpt>
      <trkpt lat="45.2678" lon="6.55212">
        <ele>2975.3</ele>
        <time>2019-08-05T09:05:42.000Z</time>
      </trkpt>
      <trkpt lat="45.26785" lon="6.55223">
        <ele>2978.7</ele>
        <time>2019-08-05T09:05:52.000Z</time>
      </trkpt>
      <trkpt lat="45.26787" lon="6.55236">
        <ele>2981.6</ele>
        <time>2019-08-05T09:06:01.000Z</time>
      </trkpt>
      <trkpt lat="45.26788" lon="6.55249">
        <ele>2982.4</ele>
        <time>2019-08-05T09:06:08.000Z</time>
      </trkpt>
      <trkpt lat="45.26791" lon="6.55262">
        <ele>2983.2</ele>
        <time>2019-08-05T09:06:17.000Z</time>
      </trkpt>
      <trkpt lat="45.26792" lon="6.55275">
        <ele>2982.6</ele>
        <time>2019-08-05T09:06:37.000Z</time>
      </trkpt>
      <trkpt lat="45.26793" lon="6.55289">
        <ele>2982.5</ele>
        <time>2019-08-05T09:07:11.000Z</time>
      </trkpt>
      <trkpt lat="45.26793" lon="6.55302">
        <ele>2981.2</ele>
        <time>2019-08-05T09:07:19.000Z</time>
      </trkpt>
      <trkpt lat="45.26795" lon="6.55315">
        <ele>2979.5</ele>
        <time>2019-08-05T09:07:26.000Z</time>
      </trkpt>
      <trkpt lat="45.26792" lon="6.55329">
        <ele>2979.2</ele>
        <time>2019-08-05T09:07:34.000Z</time>
      </trkpt>
      <trkpt lat="45.26789" lon="6.55343">
        <ele>2978.9</ele>
        <time>2019-08-05T09:07:42.000Z</time>
      </trkpt>
      <trkpt lat="45.26785" lon="6.55356">
        <ele>2978.5</ele>
        <time>2019-08-05T09:07:50.000Z</time>
      </trkpt>
      <trkpt lat="45.26783" lon="6.55368">
        <ele>2978.4</ele>
        <time>2019-08-05T09:07:59.000Z</time>
      </trkpt>
      <trkpt lat="45.26779" lon="6.55381">
        <ele>2978.7</ele>
        <time>2019-08-05T09:08:06.000Z</time>
      </trkpt>
      <trkpt lat="45.26776" lon="6.55395">
        <ele>2979.2</ele>
        <time>2019-08-05T09:08:14.000Z</time>
      </trkpt>
      <trkpt lat="45.26772" lon="6.55408">
        <ele>2980.4</ele>
        <time>2019-08-05T09:08:21.000Z</time>
      </trkpt>
      <trkpt lat="45.26769" lon="6.55421">
        <ele>2981.7</ele>
        <time>2019-08-05T09:08:48.000Z</time>
      </trkpt>
      <trkpt lat="45.26765" lon="6.55434">
        <ele>2982.3</ele>
        <time>2019-08-05T09:08:58.000Z</time>
      </trkpt>
      <trkpt lat="45.2676" lon="6.55445">
        <ele>2984.1</ele>
        <time>2019-08-05T09:09:08.000Z</time>
      </trkpt>
      <trkpt lat="45.26752" lon="6.55453">
        <ele>2985.2</ele>
        <time>2019-08-05T09:09:17.000Z</time>
      </trkpt>
      <trkpt lat="45.26745" lon="6.55461">
        <ele>2987.5</ele>
        <time>2019-08-05T09:09:44.000Z</time>
      </trkpt>
      <trkpt lat="45.26738" lon="6.55469">
        <ele>2986.8</ele>
        <time>2019-08-05T09:09:53.000Z</time>
      </trkpt>
      <trkpt lat="45.2673" lon="6.55476">
        <ele>2986.8</ele>
        <time>2019-08-05T09:10:01.000Z</time>
      </trkpt>
      <trkpt lat="45.26721" lon="6.55481">
        <ele>2986.7</ele>
        <time>2019-08-05T09:10:07.000Z</time>
      </trkpt>
      <trkpt lat="45.26712" lon="6.55489">
        <ele>2988.7</ele>
        <time>2019-08-05T09:10:29.000Z</time>
      </trkpt>
      <trkpt lat="45.26703" lon="6.55494">
        <ele>2988.5</ele>
        <time>2019-08-05T09:10:36.000Z</time>
      </trkpt>
      <trkpt lat="45.26694" lon="6.55498">
        <ele>2988.9</ele>
        <time>2019-08-05T09:10:43.000Z</time>
      </trkpt>
      <trkpt lat="45.26686" lon="6.55506">
        <ele>2987.7</ele>
        <time>2019-08-05T09:10:52.000Z</time>
      </trkpt>
      <trkpt lat="45.26676" lon="6.55508">
        <ele>2988.5</ele>
        <time>2019-08-05T09:11:01.000Z</time>
      </trkpt>
      <trkpt lat="45.26667" lon="6.55511">
        <ele>2989.1</ele>
        <time>2019-08-05T09:11:09.000Z</time>
      </trkpt>
      <trkpt lat="45.26658" lon="6.55514">
        <ele>2988.8</ele>
        <time>2019-08-05T09:11:17.000Z</time>
      </trkpt>
      <trkpt lat="45.26649" lon="6.55516">
        <ele>2989.4</ele>
        <time>2019-08-05T09:11:27.000Z</time>
      </trkpt>
      <trkpt lat="45.2664" lon="6.55522">
        <ele>2990.3</ele>
        <time>2019-08-05T09:11:49.000Z</time>
      </trkpt>
      <trkpt lat="45.26631" lon="6.5552">
        <ele>2990.5</ele>
        <time>2019-08-05T09:12:00.000Z</time>
      </trkpt>
      <trkpt lat="45.26622" lon="6.55515">
        <ele>2991.7</ele>
        <time>2019-08-05T09:12:09.000Z</time>
      </trkpt>
      <trkpt lat="45.26614" lon="6.55508">
        <ele>2991.9</ele>
        <time>2019-08-05T09:12:16.000Z</time>
      </trkpt>
      <trkpt lat="45.26605" lon="6.55508">
        <ele>2990.7</ele>
        <time>2019-08-05T09:12:28.000Z</time>
      </trkpt>
      <trkpt lat="45.26596" lon="6.55507">
        <ele>2990.6</ele>
        <time>2019-08-05T09:12:42.000Z</time>
      </trkpt>
      <trkpt lat="45.26587" lon="6.55505">
        <ele>2990.6</ele>
        <time>2019-08-05T09:13:02.000Z</time>
      </trkpt>
      <trkpt lat="45.26578" lon="6.55503">
        <ele>2991.2</ele>
        <time>2019-08-05T09:13:21.000Z</time>
      </trkpt>
      <trkpt lat="45.26569" lon="6.55504">
        <ele>2993.6</ele>
        <time>2019-08-05T09:13:36.000Z</time>
      </trkpt>
      <trkpt lat="45.2656" lon="6.55499">
        <ele>2994</ele>
        <time>2019-08-05T09:13:50.000Z</time>
      </trkpt>
      <trkpt lat="45.26553" lon="6.55491">
        <ele>2995.2</ele>
        <time>2019-08-05T09:14:05.000Z</time>
      </trkpt>
      <trkpt lat="45.26543" lon="6.55487">
        <ele>2995.8</ele>
        <time>2019-08-05T09:14:26.000Z</time>
      </trkpt>
      <trkpt lat="45.26535" lon="6.55481">
        <ele>2997.4</ele>
        <time>2019-08-05T09:14:39.000Z</time>
      </trkpt>
      <trkpt lat="45.26529" lon="6.55471">
        <ele>3000.1</ele>
        <time>2019-08-05T09:14:59.000Z</time>
      </trkpt>
      <trkpt lat="45.26525" lon="6.55459">
        <ele>3000.8</ele>
        <time>2019-08-05T09:15:14.000Z</time>
      </trkpt>
      <trkpt lat="45.26516" lon="6.55454">
        <ele>3002.7</ele>
        <time>2019-08-05T09:15:39.000Z</time>
      </trkpt>
      <trkpt lat="45.26506" lon="6.55451">
        <ele>3005.3</ele>
        <time>2019-08-05T09:15:54.000Z</time>
      </trkpt>
      <trkpt lat="45.26498" lon="6.55457">
        <ele>3006.9</ele>
        <time>2019-08-05T09:16:09.000Z</time>
      </trkpt>
      <trkpt lat="45.26489" lon="6.55459">
        <ele>3008.5</ele>
        <time>2019-08-05T09:16:26.000Z</time>
      </trkpt>
      <trkpt lat="45.26481" lon="6.55452">
        <ele>3010.3</ele>
        <time>2019-08-05T09:16:42.000Z</time>
      </trkpt>
      <trkpt lat="45.26472" lon="6.5545">
        <ele>3012.6</ele>
        <time>2019-08-05T09:16:59.000Z</time>
      </trkpt>
      <trkpt lat="45.26462" lon="6.55446">
        <ele>3011.5</ele>
        <time>2019-08-05T09:18:46.000Z</time>
      </trkpt>
      <trkpt lat="45.26454" lon="6.55441">
        <ele>3011.1</ele>
        <time>2019-08-05T09:20:07.000Z</time>
      </trkpt>
      <trkpt lat="45.26444" lon="6.55439">
        <ele>3011.1</ele>
        <time>2019-08-05T09:20:18.000Z</time>
      </trkpt>
      <trkpt lat="45.26435" lon="6.55441">
        <ele>3013.1</ele>
        <time>2019-08-05T09:20:30.000Z</time>
      </trkpt>
      <trkpt lat="45.26426" lon="6.55441">
        <ele>3014.9</ele>
        <time>2019-08-05T09:21:10.000Z</time>
      </trkpt>
      <trkpt lat="45.26416" lon="6.55442">
        <ele>3015.8</ele>
        <time>2019-08-05T09:21:22.000Z</time>
      </trkpt>
      <trkpt lat="45.264" lon="6.55438">
        <ele>3023.3</ele>
        <time>2019-08-05T09:22:05.000Z</time>
      </trkpt>
      <trkpt lat="45.2639" lon="6.55439">
        <ele>3025.5</ele>
        <time>2019-08-05T09:23:25.000Z</time>
      </trkpt>
      <trkpt lat="45.26381" lon="6.55443">
        <ele>3025.7</ele>
        <time>2019-08-05T09:23:42.000Z</time>
      </trkpt>
      <trkpt lat="45.26372" lon="6.55448">
        <ele>3027.1</ele>
        <time>2019-08-05T09:24:09.000Z</time>
      </trkpt>
      <trkpt lat="45.26363" lon="6.55449">
        <ele>3031</ele>
        <time>2019-08-05T09:25:12.000Z</time>
      </trkpt>
      <trkpt lat="45.26354" lon="6.55451">
        <ele>3031.8</ele>
        <time>2019-08-05T09:25:28.000Z</time>
      </trkpt>
      <trkpt lat="45.26346" lon="6.55457">
        <ele>3033</ele>
        <time>2019-08-05T09:26:02.000Z</time>
      </trkpt>
      <trkpt lat="45.26337" lon="6.55464">
        <ele>3037.5</ele>
        <time>2019-08-05T09:27:10.000Z</time>
      </trkpt>
      <trkpt lat="45.26328" lon="6.55464">
        <ele>3039.8</ele>
        <time>2019-08-05T09:27:24.000Z</time>
      </trkpt>
      <trkpt lat="45.26319" lon="6.55465">
        <ele>3044.2</ele>
        <time>2019-08-05T09:27:50.000Z</time>
      </trkpt>
      <trkpt lat="45.2631" lon="6.55465">
        <ele>3051.1</ele>
        <time>2019-08-05T09:28:14.000Z</time>
      </trkpt>
      <trkpt lat="45.26301" lon="6.55469">
        <ele>3055.1</ele>
        <time>2019-08-05T09:29:02.000Z</time>
      </trkpt>
      <trkpt lat="45.26293" lon="6.55475">
        <ele>3056.2</ele>
        <time>2019-08-05T09:29:18.000Z</time>
      </trkpt>
      <trkpt lat="45.26285" lon="6.55481">
        <ele>3058.1</ele>
        <time>2019-08-05T09:29:42.000Z</time>
      </trkpt>
      <trkpt lat="45.2628" lon="6.55494">
        <ele>3059.8</ele>
        <time>2019-08-05T09:30:18.000Z</time>
      </trkpt>
      <trkpt lat="45.26272" lon="6.55506">
        <ele>3064.5</ele>
        <time>2019-08-05T09:31:04.000Z</time>
      </trkpt>
      <trkpt lat="45.26265" lon="6.55514">
        <ele>3071.7</ele>
        <time>2019-08-05T09:31:58.000Z</time>
      </trkpt>
      <trkpt lat="45.2626" lon="6.55527">
        <ele>3073.9</ele>
        <time>2019-08-05T09:32:09.000Z</time>
      </trkpt>
      <trkpt lat="45.26256" lon="6.55538">
        <ele>3077</ele>
        <time>2019-08-05T09:32:20.000Z</time>
      </trkpt>
      <trkpt lat="45.26251" lon="6.55549">
        <ele>3078.2</ele>
        <time>2019-08-05T09:32:59.000Z</time>
      </trkpt>
      <trkpt lat="45.26248" lon="6.55562">
        <ele>3079</ele>
        <time>2019-08-05T09:33:14.000Z</time>
      </trkpt>
      <trkpt lat="45.26245" lon="6.55574">
        <ele>3081.9</ele>
        <time>2019-08-05T09:33:27.000Z</time>
      </trkpt>
      <trkpt lat="45.26243" lon="6.55587">
        <ele>3084.6</ele>
        <time>2019-08-05T09:33:40.000Z</time>
      </trkpt>
      <trkpt lat="45.26241" lon="6.556">
        <ele>3087.3</ele>
        <time>2019-08-05T09:34:03.000Z</time>
      </trkpt>
      <trkpt lat="45.26241" lon="6.55613">
        <ele>3089.6</ele>
        <time>2019-08-05T09:34:19.000Z</time>
      </trkpt>
      <trkpt lat="45.2624" lon="6.55626">
        <ele>3090.9</ele>
        <time>2019-08-05T09:34:31.000Z</time>
      </trkpt>
      <trkpt lat="45.26241" lon="6.55639">
        <ele>3092.5</ele>
        <time>2019-08-05T09:34:42.000Z</time>
      </trkpt>
      <trkpt lat="45.26243" lon="6.55653">
        <ele>3092.2</ele>
        <time>2019-08-05T09:35:12.000Z</time>
      </trkpt>
      <trkpt lat="45.26242" lon="6.55667">
        <ele>3091.6</ele>
        <time>2019-08-05T09:35:24.000Z</time>
      </trkpt>
      <trkpt lat="45.26242" lon="6.55681">
        <ele>3091.3</ele>
        <time>2019-08-05T09:35:33.000Z</time>
      </trkpt>
      <trkpt lat="45.2624" lon="6.55693">
        <ele>3092.4</ele>
        <time>2019-08-05T09:35:42.000Z</time>
      </trkpt>
      <trkpt lat="45.2624" lon="6.55707">
        <ele>3094.6</ele>
        <time>2019-08-05T09:35:55.000Z</time>
      </trkpt>
      <trkpt lat="45.26238" lon="6.55721">
        <ele>3096.1</ele>
        <time>2019-08-05T09:36:06.000Z</time>
      </trkpt>
      <trkpt lat="45.26234" lon="6.55732">
        <ele>3098.4</ele>
        <time>2019-08-05T09:36:21.000Z</time>
      </trkpt>
      <trkpt lat="45.26227" lon="6.5574">
        <ele>3102.4</ele>
        <time>2019-08-05T09:37:17.000Z</time>
      </trkpt>
      <trkpt lat="45.2622" lon="6.55751">
        <ele>3103.3</ele>
        <time>2019-08-05T09:37:25.000Z</time>
      </trkpt>
      <trkpt lat="45.26215" lon="6.55762">
        <ele>3105.2</ele>
        <time>2019-08-05T09:37:34.000Z</time>
      </trkpt>
      <trkpt lat="45.26209" lon="6.55773">
        <ele>3105.9</ele>
        <time>2019-08-05T09:37:44.000Z</time>
      </trkpt>
      <trkpt lat="45.26207" lon="6.55785">
        <ele>3106.1</ele>
        <time>2019-08-05T09:38:10.000Z</time>
      </trkpt>
      <trkpt lat="45.26209" lon="6.55798">
        <ele>3108.2</ele>
        <time>2019-08-05T09:38:25.000Z</time>
      </trkpt>
      <trkpt lat="45.26212" lon="6.55815">
        <ele>3112.7</ele>
        <time>2019-08-05T09:39:01.000Z</time>
      </trkpt>
      <trkpt lat="45.26217" lon="6.55826">
        <ele>3115.4</ele>
        <time>2019-08-05T09:39:38.000Z</time>
      </trkpt>
      <trkpt lat="45.26226" lon="6.55829">
        <ele>3116.8</ele>
        <time>2019-08-05T09:39:58.000Z</time>
      </trkpt>
      <trkpt lat="45.26235" lon="6.55835">
        <ele>3120.9</ele>
        <time>2019-08-05T09:41:20.000Z</time>
      </trkpt>
      <trkpt lat="45.26244" lon="6.55839">
        <ele>3127</ele>
        <time>2019-08-05T09:41:37.000Z</time>
      </trkpt>
      <trkpt lat="45.26253" lon="6.55844">
        <ele>3130</ele>
        <time>2019-08-05T09:41:53.000Z</time>
      </trkpt>
      <trkpt lat="45.26259" lon="6.55853">
        <ele>3129.8</ele>
        <time>2019-08-05T09:43:01.000Z</time>
      </trkpt>
      <trkpt lat="45.26268" lon="6.55853">
        <ele>3130</ele>
        <time>2019-08-05T09:43:18.000Z</time>
      </trkpt>
      <trkpt lat="45.26277" lon="6.55854">
        <ele>3130.3</ele>
        <time>2019-08-05T09:43:34.000Z</time>
      </trkpt>
      <trkpt lat="45.26286" lon="6.55857">
        <ele>3131</ele>
        <time>2019-08-05T09:43:48.000Z</time>
      </trkpt>
      <trkpt lat="45.26294" lon="6.55862">
        <ele>3131.9</ele>
        <time>2019-08-05T09:44:00.000Z</time>
      </trkpt>
      <trkpt lat="45.26303" lon="6.55868">
        <ele>3135</ele>
        <time>2019-08-05T09:44:25.000Z</time>
      </trkpt>
      <trkpt lat="45.26311" lon="6.55875">
        <ele>3137</ele>
        <time>2019-08-05T09:44:37.000Z</time>
      </trkpt>
      <trkpt lat="45.26319" lon="6.55881">
        <ele>3138.9</ele>
        <time>2019-08-05T09:44:50.000Z</time>
      </trkpt>
      <trkpt lat="45.26328" lon="6.55883">
        <ele>3141.9</ele>
        <time>2019-08-05T09:45:35.000Z</time>
      </trkpt>
      <trkpt lat="45.26337" lon="6.55889">
        <ele>3141.9</ele>
        <time>2019-08-05T09:45:45.000Z</time>
      </trkpt>
      <trkpt lat="45.26346" lon="6.5589">
        <ele>3142.9</ele>
        <time>2019-08-05T09:45:56.000Z</time>
      </trkpt>
      <trkpt lat="45.26355" lon="6.55892">
        <ele>3143.4</ele>
        <time>2019-08-05T09:46:07.000Z</time>
      </trkpt>
      <trkpt lat="45.26364" lon="6.55893">
        <ele>3145.1</ele>
        <time>2019-08-05T09:46:20.000Z</time>
      </trkpt>
      <trkpt lat="45.26375" lon="6.55904">
        <ele>3144.9</ele>
        <time>2019-08-05T09:47:14.000Z</time>
      </trkpt>
      <trkpt lat="45.26372" lon="6.55918">
        <ele>3146.8</ele>
        <time>2019-08-05T09:48:16.000Z</time>
      </trkpt>
      <trkpt lat="45.26366" lon="6.55928">
        <ele>3146.6</ele>
        <time>2019-08-05T09:48:35.000Z</time>
      </trkpt>
      <trkpt lat="45.26357" lon="6.5593">
        <ele>3149.8</ele>
        <time>2019-08-05T09:49:39.000Z</time>
      </trkpt>
      <trkpt lat="45.26351" lon="6.55941">
        <ele>3152.1</ele>
        <time>2019-08-05T09:50:08.000Z</time>
      </trkpt>
      <trkpt lat="45.26346" lon="6.55951">
        <ele>3157.2</ele>
        <time>2019-08-05T09:50:30.000Z</time>
      </trkpt>
      <trkpt lat="45.26337" lon="6.55964">
        <ele>3163.5</ele>
        <time>2019-08-05T09:51:13.000Z</time>
      </trkpt>
      <trkpt lat="45.26329" lon="6.55973">
        <ele>3166.1</ele>
        <time>2019-08-05T09:51:29.000Z</time>
      </trkpt>
      <trkpt lat="45.2632" lon="6.55978">
        <ele>3169.2</ele>
        <time>2019-08-05T09:51:41.000Z</time>
      </trkpt>
      <trkpt lat="45.26317" lon="6.5599">
        <ele>3178.1</ele>
        <time>2019-08-05T09:53:31.000Z</time>
      </trkpt>
      <trkpt lat="45.26324" lon="6.55998">
        <ele>3180</ele>
        <time>2019-08-05T09:53:41.000Z</time>
      </trkpt>
      <trkpt lat="45.26334" lon="6.56">
        <ele>3181.8</ele>
        <time>2019-08-05T09:54:04.000Z</time>
      </trkpt>
      <trkpt lat="45.26344" lon="6.56">
        <ele>3181.1</ele>
        <time>2019-08-05T09:54:12.000Z</time>
      </trkpt>
      <trkpt lat="45.26348" lon="6.56013">
        <ele>3180.7</ele>
        <time>2019-08-05T09:54:23.000Z</time>
      </trkpt>
      <trkpt lat="45.26345" lon="6.56025">
        <ele>3181.4</ele>
        <time>2019-08-05T09:54:34.000Z</time>
      </trkpt>
      <trkpt lat="45.26342" lon="6.56037">
        <ele>3183</ele>
        <time>2019-08-05T09:54:46.000Z</time>
      </trkpt>
      <trkpt lat="45.26338" lon="6.5605">
        <ele>3183.7</ele>
        <time>2019-08-05T09:54:55.000Z</time>
      </trkpt>
      <trkpt lat="45.26334" lon="6.56061">
        <ele>3185.3</ele>
        <time>2019-08-05T09:55:35.000Z</time>
      </trkpt>
      <trkpt lat="45.26326" lon="6.56068">
        <ele>3186.9</ele>
        <time>2019-08-05T09:55:51.000Z</time>
      </trkpt>
      <trkpt lat="45.26322" lon="6.5608">
        <ele>3189</ele>
        <time>2019-08-05T09:56:10.000Z</time>
      </trkpt>
      <trkpt lat="45.26324" lon="6.56093">
        <ele>3200.6</ele>
        <time>2019-08-05T09:58:31.000Z</time>
      </trkpt>
    </trkseg>
  </trk>
</gpx>